<?xml version="1.0" encoding="UTF-8" standalone="no" ?>
<gpx xmlns="http://www.topografix.com/GPX/1/1" xmlns:xsi="http://www.w3.org/2001/XMLSchema-instance" xsi:schemaLocation="http://www.topografix.com/GPX/1/1 http://www.topografix.com/GPX/1/1/gpx.xsd" version="1.1" creator="VisuGPX - https://www.visugpx.com">
  <metadata>
    <name>Mont Pinet et Sangle du Fouda Blanc</name>
    <desc><![CDATA[Au départ de la Plagne (Chartreuse)]]></desc>
  </metadata>
  <trk>
    <name><![CDATA[2014-08-03 10:01]]></name>
    <desc><![CDATA[<h1>OruxMaps</h1><br /><hr align="center" width="480" style="height: 2px; width: 517px"/><h2>Nom: 2014-08-03 10:01</h2><br /><p>Temps de départ: 08/03/2014 10:01</p><p>Temps d'arrivée: 08/03/2014 14:18</p><p>Distance: 15,4 km (04:16)</p><p>Temps déplacement: 03:32</p><p>Vitesse moyenne: 3,6 km/h</p><p>Vitesse moyenne: 4,3 km/h</p><p>Vitess Max.: 10,8 km/h</p><p>Altitude minimale: 1055 m</p><p>Altitude maximale: 1861 m</p><p>Vitesse d'élévation: 532 m/h</p><p>Vitesse de descente: -603,2 m/h</p><p>Gain Altitude: 1155 m</p><p>Perte Altitude: -1141 m</p><p>Temps d'élévation: 02:10</p><p>Temps de descente: 01:53</p><hr align="center" width="480" style="height: 2px; width: 517px"/>]]></desc>
    <trkseg>
      <trkpt lat="45.44388" lon="5.90334">
        <ele>1055.69</ele>
        <time>2014-08-03T08:01:49Z</time>
      </trkpt>
      <trkpt lat="45.44395" lon="5.90358">
        <ele>1068.92</ele>
        <time>2014-08-03T08:03:31Z</time>
      </trkpt>
      <trkpt lat="45.44395" lon="5.90384">
        <ele>1069.86</ele>
        <time>2014-08-03T08:03:43Z</time>
      </trkpt>
      <trkpt lat="45.44398" lon="5.9041">
        <ele>1071.09</ele>
        <time>2014-08-03T08:03:55Z</time>
      </trkpt>
      <trkpt lat="45.44401" lon="5.90435">
        <ele>1071.13</ele>
        <time>2014-08-03T08:04:07Z</time>
      </trkpt>
      <trkpt lat="45.44405" lon="5.90462">
        <ele>1072.78</ele>
        <time>2014-08-03T08:04:20Z</time>
      </trkpt>
      <trkpt lat="45.44406" lon="5.9049">
        <ele>1074.72</ele>
        <time>2014-08-03T08:04:32Z</time>
      </trkpt>
      <trkpt lat="45.4441" lon="5.90515">
        <ele>1075.38</ele>
        <time>2014-08-03T08:04:45Z</time>
      </trkpt>
      <trkpt lat="45.44414" lon="5.90541">
        <ele>1079.83</ele>
        <time>2014-08-03T08:05:02Z</time>
      </trkpt>
      <trkpt lat="45.44416" lon="5.90567">
        <ele>1084.83</ele>
        <time>2014-08-03T08:05:21Z</time>
      </trkpt>
      <trkpt lat="45.4442" lon="5.90593">
        <ele>1087.34</ele>
        <time>2014-08-03T08:05:38Z</time>
      </trkpt>
      <trkpt lat="45.44418" lon="5.9062">
        <ele>1092.79</ele>
        <time>2014-08-03T08:05:53Z</time>
      </trkpt>
      <trkpt lat="45.44415" lon="5.90647">
        <ele>1095.63</ele>
        <time>2014-08-03T08:06:09Z</time>
      </trkpt>
      <trkpt lat="45.44415" lon="5.90673">
        <ele>1100.24</ele>
        <time>2014-08-03T08:06:26Z</time>
      </trkpt>
      <trkpt lat="45.44424" lon="5.90696">
        <ele>1105.59</ele>
        <time>2014-08-03T08:06:45Z</time>
      </trkpt>
      <trkpt lat="45.44417" lon="5.90721">
        <ele>1110.62</ele>
        <time>2014-08-03T08:07:02Z</time>
      </trkpt>
      <trkpt lat="45.44417" lon="5.90747">
        <ele>1112.94</ele>
        <time>2014-08-03T08:07:17Z</time>
      </trkpt>
      <trkpt lat="45.44416" lon="5.90774">
        <ele>1114.75</ele>
        <time>2014-08-03T08:07:32Z</time>
      </trkpt>
      <trkpt lat="45.444" lon="5.90789">
        <ele>1121.35</ele>
        <time>2014-08-03T08:07:50Z</time>
      </trkpt>
      <trkpt lat="45.44386" lon="5.90804">
        <ele>1123.32</ele>
        <time>2014-08-03T08:08:05Z</time>
      </trkpt>
      <trkpt lat="45.44378" lon="5.90828">
        <ele>1125.74</ele>
        <time>2014-08-03T08:08:20Z</time>
      </trkpt>
      <trkpt lat="45.44382" lon="5.90854">
        <ele>1126.94</ele>
        <time>2014-08-03T08:08:41Z</time>
      </trkpt>
      <trkpt lat="45.4438" lon="5.9088">
        <ele>1132.46</ele>
        <time>2014-08-03T08:09:05Z</time>
      </trkpt>
      <trkpt lat="45.44374" lon="5.90905">
        <ele>1136.75</ele>
        <time>2014-08-03T08:09:25Z</time>
      </trkpt>
      <trkpt lat="45.44369" lon="5.90929">
        <ele>1141.43</ele>
        <time>2014-08-03T08:09:47Z</time>
      </trkpt>
      <trkpt lat="45.44364" lon="5.90954">
        <ele>1144.08</ele>
        <time>2014-08-03T08:10:09Z</time>
      </trkpt>
      <trkpt lat="45.44362" lon="5.9098">
        <ele>1144.76</ele>
        <time>2014-08-03T08:10:28Z</time>
      </trkpt>
      <trkpt lat="45.44354" lon="5.91004">
        <ele>1148.34</ele>
        <time>2014-08-03T08:10:45Z</time>
      </trkpt>
      <trkpt lat="45.44345" lon="5.91026">
        <ele>1154.5</ele>
        <time>2014-08-03T08:11:07Z</time>
      </trkpt>
      <trkpt lat="45.4434" lon="5.91051">
        <ele>1155.06</ele>
        <time>2014-08-03T08:11:26Z</time>
      </trkpt>
      <trkpt lat="45.44328" lon="5.91071">
        <ele>1159.93</ele>
        <time>2014-08-03T08:11:46Z</time>
      </trkpt>
      <trkpt lat="45.44322" lon="5.91097">
        <ele>1164.15</ele>
        <time>2014-08-03T08:12:08Z</time>
      </trkpt>
      <trkpt lat="45.44322" lon="5.91124">
        <ele>1175.66</ele>
        <time>2014-08-03T08:12:44Z</time>
      </trkpt>
      <trkpt lat="45.44329" lon="5.91148">
        <ele>1180.48</ele>
        <time>2014-08-03T08:13:02Z</time>
      </trkpt>
      <trkpt lat="45.44334" lon="5.91175">
        <ele>1189.19</ele>
        <time>2014-08-03T08:13:25Z</time>
      </trkpt>
      <trkpt lat="45.44342" lon="5.91198">
        <ele>1190.36</ele>
        <time>2014-08-03T08:13:42Z</time>
      </trkpt>
      <trkpt lat="45.44356" lon="5.91216">
        <ele>1208.65</ele>
        <time>2014-08-03T08:14:06Z</time>
      </trkpt>
      <trkpt lat="45.44369" lon="5.91236">
        <ele>1196.39</ele>
        <time>2014-08-03T08:14:26Z</time>
      </trkpt>
      <trkpt lat="45.44383" lon="5.91253">
        <ele>1206.49</ele>
        <time>2014-08-03T08:14:47Z</time>
      </trkpt>
      <trkpt lat="45.44398" lon="5.91268">
        <ele>1205.85</ele>
        <time>2014-08-03T08:15:06Z</time>
      </trkpt>
      <trkpt lat="45.44402" lon="5.91293">
        <ele>1214.21</ele>
        <time>2014-08-03T08:15:28Z</time>
      </trkpt>
      <trkpt lat="45.44384" lon="5.91303">
        <ele>1234.04</ele>
        <time>2014-08-03T08:15:53Z</time>
      </trkpt>
      <trkpt lat="45.44371" lon="5.9132">
        <ele>1245.85</ele>
        <time>2014-08-03T08:16:14Z</time>
      </trkpt>
      <trkpt lat="45.44359" lon="5.91341">
        <ele>1249.81</ele>
        <time>2014-08-03T08:16:36Z</time>
      </trkpt>
      <trkpt lat="45.44349" lon="5.91364">
        <ele>1243.83</ele>
        <time>2014-08-03T08:16:52Z</time>
      </trkpt>
      <trkpt lat="45.44335" lon="5.9138">
        <ele>1255.86</ele>
        <time>2014-08-03T08:17:20Z</time>
      </trkpt>
      <trkpt lat="45.4433" lon="5.91406">
        <ele>1255.6</ele>
        <time>2014-08-03T08:17:35Z</time>
      </trkpt>
      <trkpt lat="45.44333" lon="5.91431">
        <ele>1260.73</ele>
        <time>2014-08-03T08:17:53Z</time>
      </trkpt>
      <trkpt lat="45.44332" lon="5.91457">
        <ele>1269.42</ele>
        <time>2014-08-03T08:18:20Z</time>
      </trkpt>
      <trkpt lat="45.44321" lon="5.91478">
        <ele>1282.2</ele>
        <time>2014-08-03T08:18:47Z</time>
      </trkpt>
      <trkpt lat="45.44309" lon="5.91497">
        <ele>1291.37</ele>
        <time>2014-08-03T08:19:16Z</time>
      </trkpt>
      <trkpt lat="45.44295" lon="5.91515">
        <ele>1296.27</ele>
        <time>2014-08-03T08:19:39Z</time>
      </trkpt>
      <trkpt lat="45.44285" lon="5.91536">
        <ele>1303.84</ele>
        <time>2014-08-03T08:20:08Z</time>
      </trkpt>
      <trkpt lat="45.44273" lon="5.91558">
        <ele>1307.39</ele>
        <time>2014-08-03T08:20:33Z</time>
      </trkpt>
      <trkpt lat="45.44262" lon="5.91579">
        <ele>1308.72</ele>
        <time>2014-08-03T08:20:49Z</time>
      </trkpt>
      <trkpt lat="45.44251" lon="5.916">
        <ele>1308.46</ele>
        <time>2014-08-03T08:21:08Z</time>
      </trkpt>
      <trkpt lat="45.44247" lon="5.91625">
        <ele>1307.12</ele>
        <time>2014-08-03T08:21:27Z</time>
      </trkpt>
      <trkpt lat="45.44261" lon="5.91641">
        <ele>1330.26</ele>
        <time>2014-08-03T08:22:06Z</time>
      </trkpt>
      <trkpt lat="45.44277" lon="5.91629">
        <ele>1359</ele>
        <time>2014-08-03T08:22:50Z</time>
      </trkpt>
      <trkpt lat="45.44294" lon="5.91637">
        <ele>1361.27</ele>
        <time>2014-08-03T08:23:15Z</time>
      </trkpt>
      <trkpt lat="45.44302" lon="5.9166">
        <ele>1362.26</ele>
        <time>2014-08-03T08:24:08Z</time>
      </trkpt>
      <trkpt lat="45.44314" lon="5.9168">
        <ele>1382.18</ele>
        <time>2014-08-03T08:25:00Z</time>
      </trkpt>
      <trkpt lat="45.44328" lon="5.91697">
        <ele>1386.88</ele>
        <time>2014-08-03T08:25:38Z</time>
      </trkpt>
      <trkpt lat="45.44326" lon="5.91723">
        <ele>1389.69</ele>
        <time>2014-08-03T08:26:02Z</time>
      </trkpt>
      <trkpt lat="45.44341" lon="5.91737">
        <ele>1402.77</ele>
        <time>2014-08-03T08:26:39Z</time>
      </trkpt>
      <trkpt lat="45.44335" lon="5.91762">
        <ele>1416.54</ele>
        <time>2014-08-03T08:27:25Z</time>
      </trkpt>
      <trkpt lat="45.44333" lon="5.91788">
        <ele>1426.7</ele>
        <time>2014-08-03T08:28:10Z</time>
      </trkpt>
      <trkpt lat="45.44326" lon="5.91813">
        <ele>1428.73</ele>
        <time>2014-08-03T08:28:42Z</time>
      </trkpt>
      <trkpt lat="45.44312" lon="5.9183">
        <ele>1439.28</ele>
        <time>2014-08-03T08:29:14Z</time>
      </trkpt>
      <trkpt lat="45.44302" lon="5.91851">
        <ele>1445.54</ele>
        <time>2014-08-03T08:29:39Z</time>
      </trkpt>
      <trkpt lat="45.44285" lon="5.91845">
        <ele>1456.86</ele>
        <time>2014-08-03T08:30:36Z</time>
      </trkpt>
      <trkpt lat="45.44274" lon="5.91824">
        <ele>1462.43</ele>
        <time>2014-08-03T08:31:13Z</time>
      </trkpt>
      <trkpt lat="45.4426" lon="5.91807">
        <ele>1468.83</ele>
        <time>2014-08-03T08:31:34Z</time>
      </trkpt>
      <trkpt lat="45.44246" lon="5.9179">
        <ele>1477.94</ele>
        <time>2014-08-03T08:31:57Z</time>
      </trkpt>
      <trkpt lat="45.44234" lon="5.91809">
        <ele>1490.86</ele>
        <time>2014-08-03T08:32:49Z</time>
      </trkpt>
      <trkpt lat="45.4422" lon="5.91826">
        <ele>1507.83</ele>
        <time>2014-08-03T08:33:48Z</time>
      </trkpt>
      <trkpt lat="45.44207" lon="5.91844">
        <ele>1519.37</ele>
        <time>2014-08-03T08:34:25Z</time>
      </trkpt>
      <trkpt lat="45.44196" lon="5.91865">
        <ele>1528.59</ele>
        <time>2014-08-03T08:35:05Z</time>
      </trkpt>
      <trkpt lat="45.44181" lon="5.91881">
        <ele>1532.81</ele>
        <time>2014-08-03T08:35:34Z</time>
      </trkpt>
      <trkpt lat="45.44171" lon="5.91902">
        <ele>1531.9</ele>
        <time>2014-08-03T08:35:57Z</time>
      </trkpt>
      <trkpt lat="45.44163" lon="5.91925">
        <ele>1527.16</ele>
        <time>2014-08-03T08:36:11Z</time>
      </trkpt>
      <trkpt lat="45.44155" lon="5.91949">
        <ele>1522.96</ele>
        <time>2014-08-03T08:36:24Z</time>
      </trkpt>
      <trkpt lat="45.44148" lon="5.91975">
        <ele>1522.85</ele>
        <time>2014-08-03T08:36:37Z</time>
      </trkpt>
      <trkpt lat="45.44138" lon="5.91997">
        <ele>1522.66</ele>
        <time>2014-08-03T08:36:50Z</time>
      </trkpt>
      <trkpt lat="45.44127" lon="5.9202">
        <ele>1520.38</ele>
        <time>2014-08-03T08:37:03Z</time>
      </trkpt>
      <trkpt lat="45.44115" lon="5.92041">
        <ele>1518.89</ele>
        <time>2014-08-03T08:37:16Z</time>
      </trkpt>
      <trkpt lat="45.44102" lon="5.92061">
        <ele>1518.87</ele>
        <time>2014-08-03T08:37:28Z</time>
      </trkpt>
      <trkpt lat="45.44091" lon="5.92081">
        <ele>1517.89</ele>
        <time>2014-08-03T08:37:41Z</time>
      </trkpt>
      <trkpt lat="45.44081" lon="5.92104">
        <ele>1515.01</ele>
        <time>2014-08-03T08:37:55Z</time>
      </trkpt>
      <trkpt lat="45.44074" lon="5.9213">
        <ele>1512.89</ele>
        <time>2014-08-03T08:38:09Z</time>
      </trkpt>
      <trkpt lat="45.44065" lon="5.92153">
        <ele>1510.89</ele>
        <time>2014-08-03T08:38:23Z</time>
      </trkpt>
      <trkpt lat="45.44062" lon="5.92178">
        <ele>1508.07</ele>
        <time>2014-08-03T08:38:39Z</time>
      </trkpt>
      <trkpt lat="45.44064" lon="5.92204">
        <ele>1505.39</ele>
        <time>2014-08-03T08:38:55Z</time>
      </trkpt>
      <trkpt lat="45.44047" lon="5.92212">
        <ele>1492.09</ele>
        <time>2014-08-03T08:39:25Z</time>
      </trkpt>
      <trkpt lat="45.44032" lon="5.92195">
        <ele>1488.14</ele>
        <time>2014-08-03T08:39:40Z</time>
      </trkpt>
      <trkpt lat="45.44018" lon="5.92177">
        <ele>1485</ele>
        <time>2014-08-03T08:40:00Z</time>
      </trkpt>
      <trkpt lat="45.43999" lon="5.9217">
        <ele>1483.84</ele>
        <time>2014-08-03T08:40:17Z</time>
      </trkpt>
      <trkpt lat="45.43981" lon="5.92162">
        <ele>1484.39</ele>
        <time>2014-08-03T08:40:29Z</time>
      </trkpt>
      <trkpt lat="45.43967" lon="5.92181">
        <ele>1484</ele>
        <time>2014-08-03T08:40:43Z</time>
      </trkpt>
      <trkpt lat="45.43953" lon="5.92199">
        <ele>1483.88</ele>
        <time>2014-08-03T08:40:56Z</time>
      </trkpt>
      <trkpt lat="45.43939" lon="5.92218">
        <ele>1481.01</ele>
        <time>2014-08-03T08:41:09Z</time>
      </trkpt>
      <trkpt lat="45.43925" lon="5.92233">
        <ele>1486.23</ele>
        <time>2014-08-03T08:41:24Z</time>
      </trkpt>
      <trkpt lat="45.43906" lon="5.92232">
        <ele>1493.56</ele>
        <time>2014-08-03T08:41:50Z</time>
      </trkpt>
      <trkpt lat="45.43889" lon="5.92225">
        <ele>1500.71</ele>
        <time>2014-08-03T08:42:15Z</time>
      </trkpt>
      <trkpt lat="45.43886" lon="5.92199">
        <ele>1513.57</ele>
        <time>2014-08-03T08:42:44Z</time>
      </trkpt>
      <trkpt lat="45.43869" lon="5.92187">
        <ele>1511.85</ele>
        <time>2014-08-03T08:43:05Z</time>
      </trkpt>
      <trkpt lat="45.43852" lon="5.92179">
        <ele>1514.75</ele>
        <time>2014-08-03T08:43:25Z</time>
      </trkpt>
      <trkpt lat="45.43836" lon="5.92164">
        <ele>1517.21</ele>
        <time>2014-08-03T08:43:51Z</time>
      </trkpt>
      <trkpt lat="45.43821" lon="5.92149">
        <ele>1523.44</ele>
        <time>2014-08-03T08:44:15Z</time>
      </trkpt>
      <trkpt lat="45.43802" lon="5.92144">
        <ele>1523.17</ele>
        <time>2014-08-03T08:44:33Z</time>
      </trkpt>
      <trkpt lat="45.43784" lon="5.92148">
        <ele>1522.82</ele>
        <time>2014-08-03T08:44:50Z</time>
      </trkpt>
      <trkpt lat="45.43768" lon="5.92162">
        <ele>1525.28</ele>
        <time>2014-08-03T08:45:08Z</time>
      </trkpt>
      <trkpt lat="45.43766" lon="5.92188">
        <ele>1526.78</ele>
        <time>2014-08-03T08:45:23Z</time>
      </trkpt>
      <trkpt lat="45.43763" lon="5.92214">
        <ele>1529.14</ele>
        <time>2014-08-03T08:45:40Z</time>
      </trkpt>
      <trkpt lat="45.4375" lon="5.92231">
        <ele>1532.58</ele>
        <time>2014-08-03T08:45:54Z</time>
      </trkpt>
      <trkpt lat="45.43731" lon="5.92237">
        <ele>1533.06</ele>
        <time>2014-08-03T08:46:09Z</time>
      </trkpt>
      <trkpt lat="45.43714" lon="5.92243">
        <ele>1531.85</ele>
        <time>2014-08-03T08:46:21Z</time>
      </trkpt>
      <trkpt lat="45.43696" lon="5.92242">
        <ele>1528.01</ele>
        <time>2014-08-03T08:46:36Z</time>
      </trkpt>
      <trkpt lat="45.43678" lon="5.92239">
        <ele>1528.99</ele>
        <time>2014-08-03T08:46:59Z</time>
      </trkpt>
      <trkpt lat="45.43662" lon="5.92223">
        <ele>1531.99</ele>
        <time>2014-08-03T08:47:27Z</time>
      </trkpt>
      <trkpt lat="45.43648" lon="5.92206">
        <ele>1532.37</ele>
        <time>2014-08-03T08:47:40Z</time>
      </trkpt>
      <trkpt lat="45.43636" lon="5.92187">
        <ele>1537.37</ele>
        <time>2014-08-03T08:48:00Z</time>
      </trkpt>
      <trkpt lat="45.43618" lon="5.92188">
        <ele>1535.81</ele>
        <time>2014-08-03T08:48:22Z</time>
      </trkpt>
      <trkpt lat="45.436" lon="5.92196">
        <ele>1539.25</ele>
        <time>2014-08-03T08:48:39Z</time>
      </trkpt>
      <trkpt lat="45.43582" lon="5.92206">
        <ele>1542.99</ele>
        <time>2014-08-03T08:48:52Z</time>
      </trkpt>
      <trkpt lat="45.43574" lon="5.92229">
        <ele>1538.19</ele>
        <time>2014-08-03T08:49:12Z</time>
      </trkpt>
      <trkpt lat="45.43563" lon="5.92251">
        <ele>1536.17</ele>
        <time>2014-08-03T08:49:28Z</time>
      </trkpt>
      <trkpt lat="45.43545" lon="5.92262">
        <ele>1531.32</ele>
        <time>2014-08-03T08:49:41Z</time>
      </trkpt>
      <trkpt lat="45.4354" lon="5.92237">
        <ele>1537.66</ele>
        <time>2014-08-03T08:53:05Z</time>
      </trkpt>
      <trkpt lat="45.43537" lon="5.92211">
        <ele>1549.52</ele>
        <time>2014-08-03T08:53:32Z</time>
      </trkpt>
      <trkpt lat="45.43529" lon="5.92188">
        <ele>1561.39</ele>
        <time>2014-08-03T08:53:55Z</time>
      </trkpt>
      <trkpt lat="45.43522" lon="5.92162">
        <ele>1555.55</ele>
        <time>2014-08-03T08:54:08Z</time>
      </trkpt>
      <trkpt lat="45.43507" lon="5.92147">
        <ele>1547.42</ele>
        <time>2014-08-03T08:54:15Z</time>
      </trkpt>
      <trkpt lat="45.43502" lon="5.92122">
        <ele>1555.63</ele>
        <time>2014-08-03T08:54:34Z</time>
      </trkpt>
      <trkpt lat="45.43501" lon="5.92095">
        <ele>1560.14</ele>
        <time>2014-08-03T08:54:47Z</time>
      </trkpt>
      <trkpt lat="45.43496" lon="5.9207">
        <ele>1557.3</ele>
        <time>2014-08-03T08:55:01Z</time>
      </trkpt>
      <trkpt lat="45.43487" lon="5.92047">
        <ele>1562.38</ele>
        <time>2014-08-03T08:55:19Z</time>
      </trkpt>
      <trkpt lat="45.43473" lon="5.9203">
        <ele>1559.17</ele>
        <time>2014-08-03T08:55:32Z</time>
      </trkpt>
      <trkpt lat="45.43462" lon="5.92009">
        <ele>1558.84</ele>
        <time>2014-08-03T08:55:49Z</time>
      </trkpt>
      <trkpt lat="45.43449" lon="5.91989">
        <ele>1564.53</ele>
        <time>2014-08-03T08:56:01Z</time>
      </trkpt>
      <trkpt lat="45.43438" lon="5.91966">
        <ele>1569.8</ele>
        <time>2014-08-03T08:56:21Z</time>
      </trkpt>
      <trkpt lat="45.43425" lon="5.91948">
        <ele>1572.2</ele>
        <time>2014-08-03T08:56:36Z</time>
      </trkpt>
      <trkpt lat="45.43412" lon="5.91927">
        <ele>1567.62</ele>
        <time>2014-08-03T08:56:52Z</time>
      </trkpt>
      <trkpt lat="45.43402" lon="5.91905">
        <ele>1572.86</ele>
        <time>2014-08-03T08:57:10Z</time>
      </trkpt>
      <trkpt lat="45.43394" lon="5.91882">
        <ele>1573.8</ele>
        <time>2014-08-03T08:57:26Z</time>
      </trkpt>
      <trkpt lat="45.43393" lon="5.91855">
        <ele>1576.28</ele>
        <time>2014-08-03T08:57:44Z</time>
      </trkpt>
      <trkpt lat="45.43383" lon="5.91833">
        <ele>1584.05</ele>
        <time>2014-08-03T08:58:15Z</time>
      </trkpt>
      <trkpt lat="45.43377" lon="5.91809">
        <ele>1594.37</ele>
        <time>2014-08-03T08:59:01Z</time>
      </trkpt>
      <trkpt lat="45.43365" lon="5.91788">
        <ele>1598.13</ele>
        <time>2014-08-03T08:59:28Z</time>
      </trkpt>
      <trkpt lat="45.4336" lon="5.91762">
        <ele>1610</ele>
        <time>2014-08-03T09:00:02Z</time>
      </trkpt>
      <trkpt lat="45.43352" lon="5.91739">
        <ele>1617.5</ele>
        <time>2014-08-03T09:00:24Z</time>
      </trkpt>
      <trkpt lat="45.43346" lon="5.91714">
        <ele>1613.7</ele>
        <time>2014-08-03T09:00:45Z</time>
      </trkpt>
      <trkpt lat="45.43336" lon="5.91692">
        <ele>1617.85</ele>
        <time>2014-08-03T09:01:06Z</time>
      </trkpt>
      <trkpt lat="45.43325" lon="5.91671">
        <ele>1622.76</ele>
        <time>2014-08-03T09:01:28Z</time>
      </trkpt>
      <trkpt lat="45.43315" lon="5.91649">
        <ele>1628.88</ele>
        <time>2014-08-03T09:01:50Z</time>
      </trkpt>
      <trkpt lat="45.43305" lon="5.91628">
        <ele>1628.85</ele>
        <time>2014-08-03T09:02:10Z</time>
      </trkpt>
      <trkpt lat="45.43293" lon="5.91608">
        <ele>1638.04</ele>
        <time>2014-08-03T09:02:47Z</time>
      </trkpt>
      <trkpt lat="45.43282" lon="5.91587">
        <ele>1642.19</ele>
        <time>2014-08-03T09:03:09Z</time>
      </trkpt>
      <trkpt lat="45.4327" lon="5.91566">
        <ele>1647.12</ele>
        <time>2014-08-03T09:03:41Z</time>
      </trkpt>
      <trkpt lat="45.43259" lon="5.91546">
        <ele>1652.76</ele>
        <time>2014-08-03T09:04:06Z</time>
      </trkpt>
      <trkpt lat="45.43254" lon="5.91521">
        <ele>1666.29</ele>
        <time>2014-08-03T09:04:36Z</time>
      </trkpt>
      <trkpt lat="45.43258" lon="5.91494">
        <ele>1671.55</ele>
        <time>2014-08-03T09:05:02Z</time>
      </trkpt>
      <trkpt lat="45.43255" lon="5.91469">
        <ele>1671.59</ele>
        <time>2014-08-03T09:05:19Z</time>
      </trkpt>
      <trkpt lat="45.43239" lon="5.91456">
        <ele>1674.75</ele>
        <time>2014-08-03T09:05:45Z</time>
      </trkpt>
      <trkpt lat="45.43226" lon="5.91438">
        <ele>1689.56</ele>
        <time>2014-08-03T09:06:29Z</time>
      </trkpt>
      <trkpt lat="45.4322" lon="5.91412">
        <ele>1705.35</ele>
        <time>2014-08-03T09:07:12Z</time>
      </trkpt>
      <trkpt lat="45.43204" lon="5.91401">
        <ele>1704.22</ele>
        <time>2014-08-03T09:07:41Z</time>
      </trkpt>
      <trkpt lat="45.43189" lon="5.91386">
        <ele>1705.61</ele>
        <time>2014-08-03T09:07:59Z</time>
      </trkpt>
      <trkpt lat="45.43177" lon="5.91365">
        <ele>1708.47</ele>
        <time>2014-08-03T09:08:17Z</time>
      </trkpt>
      <trkpt lat="45.43163" lon="5.91349">
        <ele>1709.43</ele>
        <time>2014-08-03T09:08:45Z</time>
      </trkpt>
      <trkpt lat="45.43147" lon="5.91336">
        <ele>1715.12</ele>
        <time>2014-08-03T09:09:05Z</time>
      </trkpt>
      <trkpt lat="45.43138" lon="5.91312">
        <ele>1715.04</ele>
        <time>2014-08-03T09:09:25Z</time>
      </trkpt>
      <trkpt lat="45.43121" lon="5.91301">
        <ele>1722.43</ele>
        <time>2014-08-03T09:09:44Z</time>
      </trkpt>
      <trkpt lat="45.43107" lon="5.91285">
        <ele>1722.08</ele>
        <time>2014-08-03T09:10:01Z</time>
      </trkpt>
      <trkpt lat="45.43092" lon="5.91269">
        <ele>1727.28</ele>
        <time>2014-08-03T09:10:28Z</time>
      </trkpt>
      <trkpt lat="45.43081" lon="5.91249">
        <ele>1733.75</ele>
        <time>2014-08-03T09:10:47Z</time>
      </trkpt>
      <trkpt lat="45.43076" lon="5.91223">
        <ele>1743.15</ele>
        <time>2014-08-03T09:11:11Z</time>
      </trkpt>
      <trkpt lat="45.43066" lon="5.91201">
        <ele>1744.87</ele>
        <time>2014-08-03T09:11:34Z</time>
      </trkpt>
      <trkpt lat="45.43059" lon="5.91176">
        <ele>1753.34</ele>
        <time>2014-08-03T09:11:54Z</time>
      </trkpt>
      <trkpt lat="45.43048" lon="5.91154">
        <ele>1749.25</ele>
        <time>2014-08-03T09:12:11Z</time>
      </trkpt>
      <trkpt lat="45.43033" lon="5.91138">
        <ele>1745.02</ele>
        <time>2014-08-03T09:12:30Z</time>
      </trkpt>
      <trkpt lat="45.43019" lon="5.91119">
        <ele>1747.24</ele>
        <time>2014-08-03T09:12:44Z</time>
      </trkpt>
      <trkpt lat="45.43011" lon="5.91096">
        <ele>1756.75</ele>
        <time>2014-08-03T09:12:58Z</time>
      </trkpt>
      <trkpt lat="45.43001" lon="5.91074">
        <ele>1757.48</ele>
        <time>2014-08-03T09:13:12Z</time>
      </trkpt>
      <trkpt lat="45.42994" lon="5.9105">
        <ele>1766.13</ele>
        <time>2014-08-03T09:13:34Z</time>
      </trkpt>
      <trkpt lat="45.42993" lon="5.91023">
        <ele>1771.99</ele>
        <time>2014-08-03T09:13:51Z</time>
      </trkpt>
      <trkpt lat="45.42987" lon="5.91">
        <ele>1767.04</ele>
        <time>2014-08-03T09:14:02Z</time>
      </trkpt>
      <trkpt lat="45.42986" lon="5.90974">
        <ele>1773.5</ele>
        <time>2014-08-03T09:14:20Z</time>
      </trkpt>
      <trkpt lat="45.42979" lon="5.9095">
        <ele>1771.23</ele>
        <time>2014-08-03T09:14:40Z</time>
      </trkpt>
      <trkpt lat="45.42969" lon="5.90928">
        <ele>1774.49</ele>
        <time>2014-08-03T09:14:59Z</time>
      </trkpt>
      <trkpt lat="45.42963" lon="5.90904">
        <ele>1782.74</ele>
        <time>2014-08-03T09:15:18Z</time>
      </trkpt>
      <trkpt lat="45.42951" lon="5.90882">
        <ele>1785.95</ele>
        <time>2014-08-03T09:15:39Z</time>
      </trkpt>
      <trkpt lat="45.42937" lon="5.90867">
        <ele>1784.96</ele>
        <time>2014-08-03T09:15:56Z</time>
      </trkpt>
      <trkpt lat="45.42925" lon="5.90846">
        <ele>1789.36</ele>
        <time>2014-08-03T09:16:13Z</time>
      </trkpt>
      <trkpt lat="45.42919" lon="5.90821">
        <ele>1792.91</ele>
        <time>2014-08-03T09:16:37Z</time>
      </trkpt>
      <trkpt lat="45.42921" lon="5.90795">
        <ele>1794.71</ele>
        <time>2014-08-03T09:17:00Z</time>
      </trkpt>
      <trkpt lat="45.42916" lon="5.90769">
        <ele>1797.46</ele>
        <time>2014-08-03T09:17:20Z</time>
      </trkpt>
      <trkpt lat="45.42901" lon="5.90754">
        <ele>1800.89</ele>
        <time>2014-08-03T09:17:45Z</time>
      </trkpt>
      <trkpt lat="45.42893" lon="5.9073">
        <ele>1800.86</ele>
        <time>2014-08-03T09:18:04Z</time>
      </trkpt>
      <trkpt lat="45.42895" lon="5.90704">
        <ele>1803.86</ele>
        <time>2014-08-03T09:18:22Z</time>
      </trkpt>
      <trkpt lat="45.42908" lon="5.90686">
        <ele>1809.57</ele>
        <time>2014-08-03T09:18:46Z</time>
      </trkpt>
      <trkpt lat="45.42917" lon="5.90662">
        <ele>1811.82</ele>
        <time>2014-08-03T09:19:08Z</time>
      </trkpt>
      <trkpt lat="45.42931" lon="5.90646">
        <ele>1818.74</ele>
        <time>2014-08-03T09:19:26Z</time>
      </trkpt>
      <trkpt lat="45.42946" lon="5.90628">
        <ele>1819.87</ele>
        <time>2014-08-03T09:19:42Z</time>
      </trkpt>
      <trkpt lat="45.4296" lon="5.90612">
        <ele>1822.11</ele>
        <time>2014-08-03T09:19:59Z</time>
      </trkpt>
      <trkpt lat="45.42978" lon="5.90602">
        <ele>1824.36</ele>
        <time>2014-08-03T09:20:13Z</time>
      </trkpt>
      <trkpt lat="45.42993" lon="5.90587">
        <ele>1825.87</ele>
        <time>2014-08-03T09:20:26Z</time>
      </trkpt>
      <trkpt lat="45.43" lon="5.90562">
        <ele>1826</ele>
        <time>2014-08-03T09:20:40Z</time>
      </trkpt>
      <trkpt lat="45.43017" lon="5.9055">
        <ele>1825.88</ele>
        <time>2014-08-03T09:20:56Z</time>
      </trkpt>
      <trkpt lat="45.43034" lon="5.90539">
        <ele>1827.63</ele>
        <time>2014-08-03T09:21:10Z</time>
      </trkpt>
      <trkpt lat="45.4305" lon="5.90526">
        <ele>1829.75</ele>
        <time>2014-08-03T09:21:24Z</time>
      </trkpt>
      <trkpt lat="45.43064" lon="5.90509">
        <ele>1833.77</ele>
        <time>2014-08-03T09:21:42Z</time>
      </trkpt>
      <trkpt lat="45.43078" lon="5.90493">
        <ele>1835.99</ele>
        <time>2014-08-03T09:22:01Z</time>
      </trkpt>
      <trkpt lat="45.43095" lon="5.90482">
        <ele>1839.63</ele>
        <time>2014-08-03T09:22:20Z</time>
      </trkpt>
      <trkpt lat="45.43113" lon="5.90476">
        <ele>1844.3</ele>
        <time>2014-08-03T09:22:35Z</time>
      </trkpt>
      <trkpt lat="45.43131" lon="5.90469">
        <ele>1846.75</ele>
        <time>2014-08-03T09:22:49Z</time>
      </trkpt>
      <trkpt lat="45.43149" lon="5.90463">
        <ele>1849.59</ele>
        <time>2014-08-03T09:23:03Z</time>
      </trkpt>
      <trkpt lat="45.43167" lon="5.90457">
        <ele>1852.61</ele>
        <time>2014-08-03T09:23:18Z</time>
      </trkpt>
      <trkpt lat="45.43185" lon="5.90451">
        <ele>1854.75</ele>
        <time>2014-08-03T09:23:32Z</time>
      </trkpt>
      <trkpt lat="45.432" lon="5.90435">
        <ele>1855.83</ele>
        <time>2014-08-03T09:23:46Z</time>
      </trkpt>
      <trkpt lat="45.43219" lon="5.90431">
        <ele>1858.59</ele>
        <time>2014-08-03T09:24:00Z</time>
      </trkpt>
      <trkpt lat="45.43235" lon="5.90417">
        <ele>1861.81</ele>
        <time>2014-08-03T09:24:17Z</time>
      </trkpt>
      <trkpt lat="45.43219" lon="5.9043">
        <ele>1854.96</ele>
        <time>2014-08-03T09:26:25Z</time>
      </trkpt>
      <trkpt lat="45.43201" lon="5.90435">
        <ele>1852.89</ele>
        <time>2014-08-03T09:26:39Z</time>
      </trkpt>
      <trkpt lat="45.43185" lon="5.90451">
        <ele>1852.12</ele>
        <time>2014-08-03T09:26:52Z</time>
      </trkpt>
      <trkpt lat="45.43168" lon="5.90457">
        <ele>1849.04</ele>
        <time>2014-08-03T09:27:05Z</time>
      </trkpt>
      <trkpt lat="45.4315" lon="5.90462">
        <ele>1847.16</ele>
        <time>2014-08-03T09:27:35Z</time>
      </trkpt>
      <trkpt lat="45.43132" lon="5.90469">
        <ele>1844.9</ele>
        <time>2014-08-03T09:27:48Z</time>
      </trkpt>
      <trkpt lat="45.43114" lon="5.90473">
        <ele>1842.26</ele>
        <time>2014-08-03T09:28:01Z</time>
      </trkpt>
      <trkpt lat="45.43095" lon="5.90478">
        <ele>1840.39</ele>
        <time>2014-08-03T09:28:14Z</time>
      </trkpt>
      <trkpt lat="45.43108" lon="5.9046">
        <ele>1830.13</ele>
        <time>2014-08-03T09:29:13Z</time>
      </trkpt>
      <trkpt lat="45.43125" lon="5.9045">
        <ele>1830.32</ele>
        <time>2014-08-03T09:30:46Z</time>
      </trkpt>
      <trkpt lat="45.43142" lon="5.90438">
        <ele>1830.39</ele>
        <time>2014-08-03T09:31:01Z</time>
      </trkpt>
      <trkpt lat="45.43157" lon="5.90424">
        <ele>1830.02</ele>
        <time>2014-08-03T09:31:29Z</time>
      </trkpt>
      <trkpt lat="45.43176" lon="5.90425">
        <ele>1831.78</ele>
        <time>2014-08-03T09:31:59Z</time>
      </trkpt>
      <trkpt lat="45.43194" lon="5.90421">
        <ele>1826.63</ele>
        <time>2014-08-03T09:32:35Z</time>
      </trkpt>
      <trkpt lat="45.43208" lon="5.90403">
        <ele>1828.89</ele>
        <time>2014-08-03T09:32:57Z</time>
      </trkpt>
      <trkpt lat="45.43218" lon="5.90382">
        <ele>1831.17</ele>
        <time>2014-08-03T09:33:17Z</time>
      </trkpt>
      <trkpt lat="45.43235" lon="5.90372">
        <ele>1831.44</ele>
        <time>2014-08-03T09:33:38Z</time>
      </trkpt>
      <trkpt lat="45.43254" lon="5.90367">
        <ele>1824.19</ele>
        <time>2014-08-03T09:34:19Z</time>
      </trkpt>
      <trkpt lat="45.43269" lon="5.9038">
        <ele>1827.74</ele>
        <time>2014-08-03T09:34:50Z</time>
      </trkpt>
      <trkpt lat="45.43282" lon="5.90401">
        <ele>1825.39</ele>
        <time>2014-08-03T09:35:26Z</time>
      </trkpt>
      <trkpt lat="45.43273" lon="5.90378">
        <ele>1829.38</ele>
        <time>2014-08-03T09:36:45Z</time>
      </trkpt>
      <trkpt lat="45.43258" lon="5.90365">
        <ele>1828.63</ele>
        <time>2014-08-03T09:37:17Z</time>
      </trkpt>
      <trkpt lat="45.43239" lon="5.90357">
        <ele>1825.03</ele>
        <time>2014-08-03T09:37:40Z</time>
      </trkpt>
      <trkpt lat="45.43222" lon="5.90366">
        <ele>1821.08</ele>
        <time>2014-08-03T09:38:06Z</time>
      </trkpt>
      <trkpt lat="45.43205" lon="5.90379">
        <ele>1815.92</ele>
        <time>2014-08-03T09:38:29Z</time>
      </trkpt>
      <trkpt lat="45.43189" lon="5.90392">
        <ele>1813.88</ele>
        <time>2014-08-03T09:38:52Z</time>
      </trkpt>
      <trkpt lat="45.43172" lon="5.904">
        <ele>1812.88</ele>
        <time>2014-08-03T09:39:13Z</time>
      </trkpt>
      <trkpt lat="45.43153" lon="5.90402">
        <ele>1811.87</ele>
        <time>2014-08-03T09:39:36Z</time>
      </trkpt>
      <trkpt lat="45.43135" lon="5.90403">
        <ele>1811.63</ele>
        <time>2014-08-03T09:39:58Z</time>
      </trkpt>
      <trkpt lat="45.43118" lon="5.90413">
        <ele>1809.14</ele>
        <time>2014-08-03T09:40:29Z</time>
      </trkpt>
      <trkpt lat="45.431" lon="5.9042">
        <ele>1808.91</ele>
        <time>2014-08-03T09:41:00Z</time>
      </trkpt>
      <trkpt lat="45.43083" lon="5.90431">
        <ele>1809.86</ele>
        <time>2014-08-03T09:41:22Z</time>
      </trkpt>
      <trkpt lat="45.43064" lon="5.90436">
        <ele>1808.63</ele>
        <time>2014-08-03T09:41:45Z</time>
      </trkpt>
      <trkpt lat="45.43046" lon="5.90436">
        <ele>1810.25</ele>
        <time>2014-08-03T09:42:05Z</time>
      </trkpt>
      <trkpt lat="45.43028" lon="5.90431">
        <ele>1809.78</ele>
        <time>2014-08-03T09:42:31Z</time>
      </trkpt>
      <trkpt lat="45.4301" lon="5.90426">
        <ele>1809.59</ele>
        <time>2014-08-03T09:42:49Z</time>
      </trkpt>
      <trkpt lat="45.42992" lon="5.9042">
        <ele>1811.47</ele>
        <time>2014-08-03T09:43:15Z</time>
      </trkpt>
      <trkpt lat="45.42974" lon="5.90413">
        <ele>1807.95</ele>
        <time>2014-08-03T09:43:38Z</time>
      </trkpt>
      <trkpt lat="45.42958" lon="5.90401">
        <ele>1809.1</ele>
        <time>2014-08-03T09:43:58Z</time>
      </trkpt>
      <trkpt lat="45.42942" lon="5.9039">
        <ele>1807.86</ele>
        <time>2014-08-03T09:44:18Z</time>
      </trkpt>
      <trkpt lat="45.42924" lon="5.90385">
        <ele>1808.16</ele>
        <time>2014-08-03T09:44:44Z</time>
      </trkpt>
      <trkpt lat="45.42906" lon="5.90385">
        <ele>1812.38</ele>
        <time>2014-08-03T09:45:14Z</time>
      </trkpt>
      <trkpt lat="45.42889" lon="5.90394">
        <ele>1812.12</ele>
        <time>2014-08-03T09:45:39Z</time>
      </trkpt>
      <trkpt lat="45.42872" lon="5.90402">
        <ele>1811.88</ele>
        <time>2014-08-03T09:46:05Z</time>
      </trkpt>
      <trkpt lat="45.42854" lon="5.90407">
        <ele>1812.72</ele>
        <time>2014-08-03T09:46:27Z</time>
      </trkpt>
      <trkpt lat="45.42836" lon="5.90407">
        <ele>1810.63</ele>
        <time>2014-08-03T09:46:46Z</time>
      </trkpt>
      <trkpt lat="45.42818" lon="5.90403">
        <ele>1812.82</ele>
        <time>2014-08-03T09:47:09Z</time>
      </trkpt>
      <trkpt lat="45.428" lon="5.90404">
        <ele>1806.63</ele>
        <time>2014-08-03T09:47:42Z</time>
      </trkpt>
      <trkpt lat="45.42782" lon="5.90399">
        <ele>1807.63</ele>
        <time>2014-08-03T09:48:00Z</time>
      </trkpt>
      <trkpt lat="45.42764" lon="5.9039">
        <ele>1811.6</ele>
        <time>2014-08-03T09:48:25Z</time>
      </trkpt>
      <trkpt lat="45.42747" lon="5.90382">
        <ele>1811.39</ele>
        <time>2014-08-03T09:48:46Z</time>
      </trkpt>
      <trkpt lat="45.42729" lon="5.90376">
        <ele>1810.78</ele>
        <time>2014-08-03T09:49:04Z</time>
      </trkpt>
      <trkpt lat="45.42712" lon="5.90365">
        <ele>1814.32</ele>
        <time>2014-08-03T09:49:24Z</time>
      </trkpt>
      <trkpt lat="45.42694" lon="5.90366">
        <ele>1810.56</ele>
        <time>2014-08-03T09:49:48Z</time>
      </trkpt>
      <trkpt lat="45.42676" lon="5.9036">
        <ele>1813.47</ele>
        <time>2014-08-03T09:50:05Z</time>
      </trkpt>
      <trkpt lat="45.42659" lon="5.90345">
        <ele>1812.43</ele>
        <time>2014-08-03T09:50:24Z</time>
      </trkpt>
      <trkpt lat="45.42641" lon="5.90344">
        <ele>1809.76</ele>
        <time>2014-08-03T09:50:48Z</time>
      </trkpt>
      <trkpt lat="45.42623" lon="5.90347">
        <ele>1812.12</ele>
        <time>2014-08-03T09:51:05Z</time>
      </trkpt>
      <trkpt lat="45.42606" lon="5.90358">
        <ele>1810.22</ele>
        <time>2014-08-03T09:51:21Z</time>
      </trkpt>
      <trkpt lat="45.42588" lon="5.90352">
        <ele>1814.12</ele>
        <time>2014-08-03T09:51:35Z</time>
      </trkpt>
      <trkpt lat="45.42569" lon="5.90356">
        <ele>1809.6</ele>
        <time>2014-08-03T09:51:50Z</time>
      </trkpt>
      <trkpt lat="45.42551" lon="5.90348">
        <ele>1809.09</ele>
        <time>2014-08-03T09:52:05Z</time>
      </trkpt>
      <trkpt lat="45.42534" lon="5.90339">
        <ele>1810.64</ele>
        <time>2014-08-03T09:52:21Z</time>
      </trkpt>
      <trkpt lat="45.42516" lon="5.90337">
        <ele>1810.76</ele>
        <time>2014-08-03T09:52:41Z</time>
      </trkpt>
      <trkpt lat="45.42499" lon="5.90326">
        <ele>1810.93</ele>
        <time>2014-08-03T09:53:09Z</time>
      </trkpt>
      <trkpt lat="45.42486" lon="5.90306">
        <ele>1812.94</ele>
        <time>2014-08-03T09:53:24Z</time>
      </trkpt>
      <trkpt lat="45.42468" lon="5.90299">
        <ele>1813.3</ele>
        <time>2014-08-03T09:53:37Z</time>
      </trkpt>
      <trkpt lat="45.42453" lon="5.90284">
        <ele>1812.88</ele>
        <time>2014-08-03T09:53:59Z</time>
      </trkpt>
      <trkpt lat="45.42438" lon="5.90269">
        <ele>1814.98</ele>
        <time>2014-08-03T09:54:17Z</time>
      </trkpt>
      <trkpt lat="45.42421" lon="5.90259">
        <ele>1815.22</ele>
        <time>2014-08-03T09:54:37Z</time>
      </trkpt>
      <trkpt lat="45.42403" lon="5.90255">
        <ele>1811.01</ele>
        <time>2014-08-03T09:55:00Z</time>
      </trkpt>
      <trkpt lat="45.42386" lon="5.90248">
        <ele>1817.93</ele>
        <time>2014-08-03T09:55:18Z</time>
      </trkpt>
      <trkpt lat="45.42367" lon="5.90246">
        <ele>1818.69</ele>
        <time>2014-08-03T09:55:35Z</time>
      </trkpt>
      <trkpt lat="45.42349" lon="5.90241">
        <ele>1822.35</ele>
        <time>2014-08-03T09:55:53Z</time>
      </trkpt>
      <trkpt lat="45.42331" lon="5.90237">
        <ele>1822.68</ele>
        <time>2014-08-03T09:56:09Z</time>
      </trkpt>
      <trkpt lat="45.42313" lon="5.90235">
        <ele>1822.85</ele>
        <time>2014-08-03T09:56:31Z</time>
      </trkpt>
      <trkpt lat="45.42298" lon="5.9022">
        <ele>1827.27</ele>
        <time>2014-08-03T09:56:57Z</time>
      </trkpt>
      <trkpt lat="45.42282" lon="5.90208">
        <ele>1828</ele>
        <time>2014-08-03T09:57:11Z</time>
      </trkpt>
      <trkpt lat="45.42264" lon="5.90198">
        <ele>1826.65</ele>
        <time>2014-08-03T09:57:31Z</time>
      </trkpt>
      <trkpt lat="45.42247" lon="5.90188">
        <ele>1824.09</ele>
        <time>2014-08-03T09:58:01Z</time>
      </trkpt>
      <trkpt lat="45.42229" lon="5.90182">
        <ele>1825.1</ele>
        <time>2014-08-03T09:58:23Z</time>
      </trkpt>
      <trkpt lat="45.42211" lon="5.90186">
        <ele>1822.11</ele>
        <time>2014-08-03T09:58:40Z</time>
      </trkpt>
      <trkpt lat="45.42196" lon="5.90201">
        <ele>1813.8</ele>
        <time>2014-08-03T09:58:54Z</time>
      </trkpt>
      <trkpt lat="45.42178" lon="5.90204">
        <ele>1817.74</ele>
        <time>2014-08-03T09:59:16Z</time>
      </trkpt>
      <trkpt lat="45.42161" lon="5.90217">
        <ele>1811.89</ele>
        <time>2014-08-03T09:59:34Z</time>
      </trkpt>
      <trkpt lat="45.42143" lon="5.90213">
        <ele>1813.67</ele>
        <time>2014-08-03T09:59:54Z</time>
      </trkpt>
      <trkpt lat="45.4213" lon="5.90195">
        <ele>1820.57</ele>
        <time>2014-08-03T10:00:16Z</time>
      </trkpt>
      <trkpt lat="45.42113" lon="5.90184">
        <ele>1822.81</ele>
        <time>2014-08-03T10:00:32Z</time>
      </trkpt>
      <trkpt lat="45.42095" lon="5.90178">
        <ele>1820.95</ele>
        <time>2014-08-03T10:00:53Z</time>
      </trkpt>
      <trkpt lat="45.42078" lon="5.90169">
        <ele>1825.34</ele>
        <time>2014-08-03T10:01:10Z</time>
      </trkpt>
      <trkpt lat="45.4206" lon="5.90162">
        <ele>1826.07</ele>
        <time>2014-08-03T10:01:30Z</time>
      </trkpt>
      <trkpt lat="45.42045" lon="5.90147">
        <ele>1832.13</ele>
        <time>2014-08-03T10:01:47Z</time>
      </trkpt>
      <trkpt lat="45.42028" lon="5.90139">
        <ele>1828.33</ele>
        <time>2014-08-03T10:02:08Z</time>
      </trkpt>
      <trkpt lat="45.42009" lon="5.9014">
        <ele>1819.55</ele>
        <time>2014-08-03T10:02:24Z</time>
      </trkpt>
      <trkpt lat="45.41995" lon="5.90155">
        <ele>1810.05</ele>
        <time>2014-08-03T10:02:41Z</time>
      </trkpt>
      <trkpt lat="45.41977" lon="5.90162">
        <ele>1817.73</ele>
        <time>2014-08-03T10:03:04Z</time>
      </trkpt>
      <trkpt lat="45.41959" lon="5.90165">
        <ele>1813.04</ele>
        <time>2014-08-03T10:04:51Z</time>
      </trkpt>
      <trkpt lat="45.41942" lon="5.90155">
        <ele>1819.84</ele>
        <time>2014-08-03T10:08:58Z</time>
      </trkpt>
      <trkpt lat="45.41925" lon="5.90146">
        <ele>1822.81</ele>
        <time>2014-08-03T10:09:16Z</time>
      </trkpt>
      <trkpt lat="45.41907" lon="5.90139">
        <ele>1825.63</ele>
        <time>2014-08-03T10:09:33Z</time>
      </trkpt>
      <trkpt lat="45.41892" lon="5.90124">
        <ele>1828.83</ele>
        <time>2014-08-03T10:09:50Z</time>
      </trkpt>
      <trkpt lat="45.41874" lon="5.90116">
        <ele>1827.93</ele>
        <time>2014-08-03T10:10:07Z</time>
      </trkpt>
      <trkpt lat="45.41859" lon="5.90101">
        <ele>1829.09</ele>
        <time>2014-08-03T10:10:26Z</time>
      </trkpt>
      <trkpt lat="45.41845" lon="5.90083">
        <ele>1831.51</ele>
        <time>2014-08-03T10:10:44Z</time>
      </trkpt>
      <trkpt lat="45.41834" lon="5.90063">
        <ele>1832.86</ele>
        <time>2014-08-03T10:11:09Z</time>
      </trkpt>
      <trkpt lat="45.41816" lon="5.90069">
        <ele>1821.62</ele>
        <time>2014-08-03T10:11:30Z</time>
      </trkpt>
      <trkpt lat="45.41802" lon="5.90087">
        <ele>1812.29</ele>
        <time>2014-08-03T10:11:47Z</time>
      </trkpt>
      <trkpt lat="45.41786" lon="5.901">
        <ele>1808.63</ele>
        <time>2014-08-03T10:12:01Z</time>
      </trkpt>
      <trkpt lat="45.4177" lon="5.90112">
        <ele>1807.88</ele>
        <time>2014-08-03T10:12:19Z</time>
      </trkpt>
      <trkpt lat="45.41753" lon="5.90121">
        <ele>1804.94</ele>
        <time>2014-08-03T10:12:36Z</time>
      </trkpt>
      <trkpt lat="45.41735" lon="5.90122">
        <ele>1801.89</ele>
        <time>2014-08-03T10:13:34Z</time>
      </trkpt>
      <trkpt lat="45.41717" lon="5.90121">
        <ele>1805.19</ele>
        <time>2014-08-03T10:13:50Z</time>
      </trkpt>
      <trkpt lat="45.41699" lon="5.90114">
        <ele>1808.88</ele>
        <time>2014-08-03T10:14:05Z</time>
      </trkpt>
      <trkpt lat="45.41684" lon="5.90129">
        <ele>1795.21</ele>
        <time>2014-08-03T10:14:19Z</time>
      </trkpt>
      <trkpt lat="45.41671" lon="5.90147">
        <ele>1786.28</ele>
        <time>2014-08-03T10:14:32Z</time>
      </trkpt>
      <trkpt lat="45.41658" lon="5.90165">
        <ele>1779.72</ele>
        <time>2014-08-03T10:14:48Z</time>
      </trkpt>
      <trkpt lat="45.41646" lon="5.90188">
        <ele>1763.87</ele>
        <time>2014-08-03T10:15:06Z</time>
      </trkpt>
      <trkpt lat="45.41629" lon="5.90199">
        <ele>1762.86</ele>
        <time>2014-08-03T10:15:20Z</time>
      </trkpt>
      <trkpt lat="45.41611" lon="5.90204">
        <ele>1765.28</ele>
        <time>2014-08-03T10:15:35Z</time>
      </trkpt>
      <trkpt lat="45.41593" lon="5.90209">
        <ele>1769.5</ele>
        <time>2014-08-03T10:15:51Z</time>
      </trkpt>
      <trkpt lat="45.41574" lon="5.90208">
        <ele>1774.56</ele>
        <time>2014-08-03T10:16:08Z</time>
      </trkpt>
      <trkpt lat="45.41556" lon="5.90202">
        <ele>1781.09</ele>
        <time>2014-08-03T10:16:24Z</time>
      </trkpt>
      <trkpt lat="45.41537" lon="5.90205">
        <ele>1777.39</ele>
        <time>2014-08-03T10:16:39Z</time>
      </trkpt>
      <trkpt lat="45.4152" lon="5.90195">
        <ele>1778.5</ele>
        <time>2014-08-03T10:16:55Z</time>
      </trkpt>
      <trkpt lat="45.41502" lon="5.9019">
        <ele>1782.73</ele>
        <time>2014-08-03T10:17:11Z</time>
      </trkpt>
      <trkpt lat="45.41484" lon="5.90183">
        <ele>1782.96</ele>
        <time>2014-08-03T10:17:27Z</time>
      </trkpt>
      <trkpt lat="45.41467" lon="5.90173">
        <ele>1781.62</ele>
        <time>2014-08-03T10:17:41Z</time>
      </trkpt>
      <trkpt lat="45.41448" lon="5.90171">
        <ele>1779.95</ele>
        <time>2014-08-03T10:18:01Z</time>
      </trkpt>
      <trkpt lat="45.41432" lon="5.90182">
        <ele>1771.01</ele>
        <time>2014-08-03T10:18:17Z</time>
      </trkpt>
      <trkpt lat="45.41414" lon="5.90191">
        <ele>1766.89</ele>
        <time>2014-08-03T10:18:36Z</time>
      </trkpt>
      <trkpt lat="45.41397" lon="5.90185">
        <ele>1760.24</ele>
        <time>2014-08-03T10:18:56Z</time>
      </trkpt>
      <trkpt lat="45.41378" lon="5.90193">
        <ele>1743.99</ele>
        <time>2014-08-03T10:19:08Z</time>
      </trkpt>
      <trkpt lat="45.41362" lon="5.90206">
        <ele>1727.23</ele>
        <time>2014-08-03T10:19:22Z</time>
      </trkpt>
      <trkpt lat="45.41345" lon="5.90216">
        <ele>1713.93</ele>
        <time>2014-08-03T10:19:37Z</time>
      </trkpt>
      <trkpt lat="45.41331" lon="5.90232">
        <ele>1705.53</ele>
        <time>2014-08-03T10:19:53Z</time>
      </trkpt>
      <trkpt lat="45.41317" lon="5.90251">
        <ele>1705.78</ele>
        <time>2014-08-03T10:20:11Z</time>
      </trkpt>
      <trkpt lat="45.413" lon="5.90264">
        <ele>1705.96</ele>
        <time>2014-08-03T10:20:25Z</time>
      </trkpt>
      <trkpt lat="45.41283" lon="5.9027">
        <ele>1704.76</ele>
        <time>2014-08-03T10:20:38Z</time>
      </trkpt>
      <trkpt lat="45.41265" lon="5.90279">
        <ele>1699.84</ele>
        <time>2014-08-03T10:20:53Z</time>
      </trkpt>
      <trkpt lat="45.41246" lon="5.90286">
        <ele>1698.72</ele>
        <time>2014-08-03T10:21:07Z</time>
      </trkpt>
      <trkpt lat="45.41228" lon="5.90287">
        <ele>1701.16</ele>
        <time>2014-08-03T10:21:21Z</time>
      </trkpt>
      <trkpt lat="45.41209" lon="5.90284">
        <ele>1706.36</ele>
        <time>2014-08-03T10:21:37Z</time>
      </trkpt>
      <trkpt lat="45.41191" lon="5.90278">
        <ele>1705.23</ele>
        <time>2014-08-03T10:21:51Z</time>
      </trkpt>
      <trkpt lat="45.41182" lon="5.90254">
        <ele>1709.29</ele>
        <time>2014-08-03T10:22:00Z</time>
      </trkpt>
      <trkpt lat="45.41164" lon="5.90246">
        <ele>1723.39</ele>
        <time>2014-08-03T10:22:16Z</time>
      </trkpt>
      <trkpt lat="45.41148" lon="5.90232">
        <ele>1730.42</ele>
        <time>2014-08-03T10:22:31Z</time>
      </trkpt>
      <trkpt lat="45.4113" lon="5.90238">
        <ele>1726.22</ele>
        <time>2014-08-03T10:22:46Z</time>
      </trkpt>
      <trkpt lat="45.41113" lon="5.90248">
        <ele>1717.78</ele>
        <time>2014-08-03T10:23:48Z</time>
      </trkpt>
      <trkpt lat="45.41101" lon="5.90269">
        <ele>1708.8</ele>
        <time>2014-08-03T10:24:04Z</time>
      </trkpt>
      <trkpt lat="45.41091" lon="5.9029">
        <ele>1710.59</ele>
        <time>2014-08-03T10:24:49Z</time>
      </trkpt>
      <trkpt lat="45.41073" lon="5.90296">
        <ele>1709.89</ele>
        <time>2014-08-03T10:25:01Z</time>
      </trkpt>
      <trkpt lat="45.41055" lon="5.9029">
        <ele>1711.74</ele>
        <time>2014-08-03T10:25:33Z</time>
      </trkpt>
      <trkpt lat="45.41062" lon="5.90315">
        <ele>1698.58</ele>
        <time>2014-08-03T10:25:42Z</time>
      </trkpt>
      <trkpt lat="45.41054" lon="5.90339">
        <ele>1682.6</ele>
        <time>2014-08-03T10:26:02Z</time>
      </trkpt>
      <trkpt lat="45.41036" lon="5.90343">
        <ele>1686.22</ele>
        <time>2014-08-03T10:26:18Z</time>
      </trkpt>
      <trkpt lat="45.41022" lon="5.90325">
        <ele>1680.02</ele>
        <time>2014-08-03T10:26:39Z</time>
      </trkpt>
      <trkpt lat="45.41003" lon="5.90328">
        <ele>1642.14</ele>
        <time>2014-08-03T10:26:51Z</time>
      </trkpt>
      <trkpt lat="45.40992" lon="5.90352">
        <ele>1617.94</ele>
        <time>2014-08-03T10:27:04Z</time>
      </trkpt>
      <trkpt lat="45.40978" lon="5.90368">
        <ele>1617.65</ele>
        <time>2014-08-03T10:27:17Z</time>
      </trkpt>
      <trkpt lat="45.40967" lon="5.90388">
        <ele>1621.36</ele>
        <time>2014-08-03T10:27:31Z</time>
      </trkpt>
      <trkpt lat="45.4095" lon="5.9038">
        <ele>1629.35</ele>
        <time>2014-08-03T10:27:45Z</time>
      </trkpt>
      <trkpt lat="45.40933" lon="5.90368">
        <ele>1635.72</ele>
        <time>2014-08-03T10:27:53Z</time>
      </trkpt>
      <trkpt lat="45.40916" lon="5.9036">
        <ele>1646.83</ele>
        <time>2014-08-03T10:28:02Z</time>
      </trkpt>
      <trkpt lat="45.40897" lon="5.9035">
        <ele>1655.33</ele>
        <time>2014-08-03T10:28:12Z</time>
      </trkpt>
      <trkpt lat="45.40879" lon="5.90343">
        <ele>1666.53</ele>
        <time>2014-08-03T10:28:24Z</time>
      </trkpt>
      <trkpt lat="45.40861" lon="5.90336">
        <ele>1682.6</ele>
        <time>2014-08-03T10:28:39Z</time>
      </trkpt>
      <trkpt lat="45.40844" lon="5.90328">
        <ele>1690.73</ele>
        <time>2014-08-03T10:28:54Z</time>
      </trkpt>
      <trkpt lat="45.40825" lon="5.90328">
        <ele>1695.09</ele>
        <time>2014-08-03T10:29:10Z</time>
      </trkpt>
      <trkpt lat="45.40812" lon="5.9031">
        <ele>1696.59</ele>
        <time>2014-08-03T10:29:25Z</time>
      </trkpt>
      <trkpt lat="45.40793" lon="5.90311">
        <ele>1695.88</ele>
        <time>2014-08-03T10:29:38Z</time>
      </trkpt>
      <trkpt lat="45.40775" lon="5.90317">
        <ele>1694.89</ele>
        <time>2014-08-03T10:29:52Z</time>
      </trkpt>
      <trkpt lat="45.40757" lon="5.90322">
        <ele>1691.05</ele>
        <time>2014-08-03T10:30:24Z</time>
      </trkpt>
      <trkpt lat="45.40741" lon="5.90332">
        <ele>1687.75</ele>
        <time>2014-08-03T10:30:37Z</time>
      </trkpt>
      <trkpt lat="45.40727" lon="5.9035">
        <ele>1685.16</ele>
        <time>2014-08-03T10:30:59Z</time>
      </trkpt>
      <trkpt lat="45.40736" lon="5.90373">
        <ele>1676.32</ele>
        <time>2014-08-03T10:32:39Z</time>
      </trkpt>
      <trkpt lat="45.40723" lon="5.90392">
        <ele>1672.85</ele>
        <time>2014-08-03T10:32:56Z</time>
      </trkpt>
      <trkpt lat="45.40731" lon="5.90415">
        <ele>1672.91</ele>
        <time>2014-08-03T10:33:08Z</time>
      </trkpt>
      <trkpt lat="45.40726" lon="5.90441">
        <ele>1672.36</ele>
        <time>2014-08-03T10:33:33Z</time>
      </trkpt>
      <trkpt lat="45.40737" lon="5.90462">
        <ele>1666.87</ele>
        <time>2014-08-03T10:35:46Z</time>
      </trkpt>
      <trkpt lat="45.40753" lon="5.90476">
        <ele>1674</ele>
        <time>2014-08-03T10:36:19Z</time>
      </trkpt>
      <trkpt lat="45.40764" lon="5.90496">
        <ele>1690.68</ele>
        <time>2014-08-03T10:38:10Z</time>
      </trkpt>
      <trkpt lat="45.40782" lon="5.90501">
        <ele>1703.62</ele>
        <time>2014-08-03T10:39:13Z</time>
      </trkpt>
      <trkpt lat="45.40796" lon="5.90518">
        <ele>1711.87</ele>
        <time>2014-08-03T10:39:57Z</time>
      </trkpt>
      <trkpt lat="45.40801" lon="5.90543">
        <ele>1713.87</ele>
        <time>2014-08-03T10:40:29Z</time>
      </trkpt>
      <trkpt lat="45.40819" lon="5.90554">
        <ele>1712.04</ele>
        <time>2014-08-03T10:42:35Z</time>
      </trkpt>
      <trkpt lat="45.40837" lon="5.90556">
        <ele>1710.38</ele>
        <time>2014-08-03T10:42:51Z</time>
      </trkpt>
      <trkpt lat="45.40854" lon="5.90569">
        <ele>1708.88</ele>
        <time>2014-08-03T10:43:08Z</time>
      </trkpt>
      <trkpt lat="45.40873" lon="5.90573">
        <ele>1705.98</ele>
        <time>2014-08-03T10:43:25Z</time>
      </trkpt>
      <trkpt lat="45.4089" lon="5.90581">
        <ele>1705.88</ele>
        <time>2014-08-03T10:43:43Z</time>
      </trkpt>
      <trkpt lat="45.40908" lon="5.90588">
        <ele>1703.88</ele>
        <time>2014-08-03T10:43:57Z</time>
      </trkpt>
      <trkpt lat="45.40926" lon="5.90595">
        <ele>1702.27</ele>
        <time>2014-08-03T10:44:12Z</time>
      </trkpt>
      <trkpt lat="45.40944" lon="5.90598">
        <ele>1702.94</ele>
        <time>2014-08-03T10:44:27Z</time>
      </trkpt>
      <trkpt lat="45.40962" lon="5.90604">
        <ele>1701.88</ele>
        <time>2014-08-03T10:44:41Z</time>
      </trkpt>
      <trkpt lat="45.40978" lon="5.90618">
        <ele>1699.52</ele>
        <time>2014-08-03T10:44:56Z</time>
      </trkpt>
      <trkpt lat="45.40993" lon="5.90632">
        <ele>1698.63</ele>
        <time>2014-08-03T10:45:11Z</time>
      </trkpt>
      <trkpt lat="45.41011" lon="5.90644">
        <ele>1694.64</ele>
        <time>2014-08-03T10:45:26Z</time>
      </trkpt>
      <trkpt lat="45.41029" lon="5.90646">
        <ele>1692.38</ele>
        <time>2014-08-03T10:45:41Z</time>
      </trkpt>
      <trkpt lat="45.41047" lon="5.90654">
        <ele>1690.79</ele>
        <time>2014-08-03T10:45:55Z</time>
      </trkpt>
      <trkpt lat="45.41063" lon="5.90665">
        <ele>1687.51</ele>
        <time>2014-08-03T10:46:10Z</time>
      </trkpt>
      <trkpt lat="45.4108" lon="5.90679">
        <ele>1686.9</ele>
        <time>2014-08-03T10:46:25Z</time>
      </trkpt>
      <trkpt lat="45.41098" lon="5.90683">
        <ele>1685.15</ele>
        <time>2014-08-03T10:46:38Z</time>
      </trkpt>
      <trkpt lat="45.41117" lon="5.90682">
        <ele>1683.89</ele>
        <time>2014-08-03T10:46:51Z</time>
      </trkpt>
      <trkpt lat="45.41136" lon="5.90684">
        <ele>1683.75</ele>
        <time>2014-08-03T10:47:03Z</time>
      </trkpt>
      <trkpt lat="45.41153" lon="5.90691">
        <ele>1681.88</ele>
        <time>2014-08-03T10:47:17Z</time>
      </trkpt>
      <trkpt lat="45.41172" lon="5.90687">
        <ele>1679.97</ele>
        <time>2014-08-03T10:47:30Z</time>
      </trkpt>
      <trkpt lat="45.41191" lon="5.90693">
        <ele>1678.38</ele>
        <time>2014-08-03T10:47:43Z</time>
      </trkpt>
      <trkpt lat="45.41206" lon="5.90708">
        <ele>1678.36</ele>
        <time>2014-08-03T10:47:55Z</time>
      </trkpt>
      <trkpt lat="45.41225" lon="5.90714">
        <ele>1677.13</ele>
        <time>2014-08-03T10:48:10Z</time>
      </trkpt>
      <trkpt lat="45.4124" lon="5.9073">
        <ele>1674.88</ele>
        <time>2014-08-03T10:48:25Z</time>
      </trkpt>
      <trkpt lat="45.41257" lon="5.90742">
        <ele>1674.85</ele>
        <time>2014-08-03T10:48:40Z</time>
      </trkpt>
      <trkpt lat="45.41268" lon="5.90762">
        <ele>1669.2</ele>
        <time>2014-08-03T10:48:55Z</time>
      </trkpt>
      <trkpt lat="45.41282" lon="5.9078">
        <ele>1667.94</ele>
        <time>2014-08-03T10:49:08Z</time>
      </trkpt>
      <trkpt lat="45.41299" lon="5.90788">
        <ele>1666.88</ele>
        <time>2014-08-03T10:49:21Z</time>
      </trkpt>
      <trkpt lat="45.41314" lon="5.90804">
        <ele>1666.76</ele>
        <time>2014-08-03T10:49:34Z</time>
      </trkpt>
      <trkpt lat="45.41333" lon="5.90801">
        <ele>1665.38</ele>
        <time>2014-08-03T10:49:46Z</time>
      </trkpt>
      <trkpt lat="45.41351" lon="5.908">
        <ele>1664.87</ele>
        <time>2014-08-03T10:49:58Z</time>
      </trkpt>
      <trkpt lat="45.41369" lon="5.90793">
        <ele>1664</ele>
        <time>2014-08-03T10:50:11Z</time>
      </trkpt>
      <trkpt lat="45.41388" lon="5.90799">
        <ele>1662.92</ele>
        <time>2014-08-03T10:50:25Z</time>
      </trkpt>
      <trkpt lat="45.41406" lon="5.90804">
        <ele>1661.91</ele>
        <time>2014-08-03T10:50:40Z</time>
      </trkpt>
      <trkpt lat="45.41423" lon="5.90817">
        <ele>1658.39</ele>
        <time>2014-08-03T10:50:53Z</time>
      </trkpt>
      <trkpt lat="45.41441" lon="5.90826">
        <ele>1656.92</ele>
        <time>2014-08-03T10:51:06Z</time>
      </trkpt>
      <trkpt lat="45.41452" lon="5.90849">
        <ele>1654.94</ele>
        <time>2014-08-03T10:51:19Z</time>
      </trkpt>
      <trkpt lat="45.41462" lon="5.90872">
        <ele>1650.95</ele>
        <time>2014-08-03T10:51:32Z</time>
      </trkpt>
      <trkpt lat="45.41479" lon="5.9088">
        <ele>1650.77</ele>
        <time>2014-08-03T10:51:44Z</time>
      </trkpt>
      <trkpt lat="45.41494" lon="5.90897">
        <ele>1650.85</ele>
        <time>2014-08-03T10:51:58Z</time>
      </trkpt>
      <trkpt lat="45.41507" lon="5.90916">
        <ele>1648.07</ele>
        <time>2014-08-03T10:52:11Z</time>
      </trkpt>
      <trkpt lat="45.41526" lon="5.90923">
        <ele>1645.94</ele>
        <time>2014-08-03T10:52:23Z</time>
      </trkpt>
      <trkpt lat="45.41545" lon="5.90926">
        <ele>1644.26</ele>
        <time>2014-08-03T10:52:36Z</time>
      </trkpt>
      <trkpt lat="45.41564" lon="5.90927">
        <ele>1644.87</ele>
        <time>2014-08-03T10:52:49Z</time>
      </trkpt>
      <trkpt lat="45.41576" lon="5.90947">
        <ele>1644.26</ele>
        <time>2014-08-03T10:53:02Z</time>
      </trkpt>
      <trkpt lat="45.41593" lon="5.90958">
        <ele>1644.01</ele>
        <time>2014-08-03T10:56:14Z</time>
      </trkpt>
      <trkpt lat="45.41608" lon="5.90973">
        <ele>1642.88</ele>
        <time>2014-08-03T10:56:27Z</time>
      </trkpt>
      <trkpt lat="45.41623" lon="5.9099">
        <ele>1644.78</ele>
        <time>2014-08-03T10:56:40Z</time>
      </trkpt>
      <trkpt lat="45.4164" lon="5.90997">
        <ele>1644.88</ele>
        <time>2014-08-03T10:56:52Z</time>
      </trkpt>
      <trkpt lat="45.41659" lon="5.91003">
        <ele>1645.38</ele>
        <time>2014-08-03T10:57:04Z</time>
      </trkpt>
      <trkpt lat="45.41677" lon="5.91004">
        <ele>1646.86</ele>
        <time>2014-08-03T10:57:17Z</time>
      </trkpt>
      <trkpt lat="45.41696" lon="5.9101">
        <ele>1645.65</ele>
        <time>2014-08-03T10:57:32Z</time>
      </trkpt>
      <trkpt lat="45.41714" lon="5.91014">
        <ele>1644.85</ele>
        <time>2014-08-03T10:57:44Z</time>
      </trkpt>
      <trkpt lat="45.41731" lon="5.91024">
        <ele>1645.9</ele>
        <time>2014-08-03T10:57:56Z</time>
      </trkpt>
      <trkpt lat="45.41744" lon="5.91044">
        <ele>1648.81</ele>
        <time>2014-08-03T10:58:15Z</time>
      </trkpt>
      <trkpt lat="45.41758" lon="5.91061">
        <ele>1649.87</ele>
        <time>2014-08-03T10:58:29Z</time>
      </trkpt>
      <trkpt lat="45.41769" lon="5.91082">
        <ele>1647.86</ele>
        <time>2014-08-03T10:58:50Z</time>
      </trkpt>
      <trkpt lat="45.41787" lon="5.91082">
        <ele>1649.86</ele>
        <time>2014-08-03T10:59:02Z</time>
      </trkpt>
      <trkpt lat="45.41806" lon="5.91082">
        <ele>1653.63</ele>
        <time>2014-08-03T10:59:17Z</time>
      </trkpt>
      <trkpt lat="45.41821" lon="5.91097">
        <ele>1654.99</ele>
        <time>2014-08-03T10:59:34Z</time>
      </trkpt>
      <trkpt lat="45.41834" lon="5.91115">
        <ele>1655.89</ele>
        <time>2014-08-03T10:59:48Z</time>
      </trkpt>
      <trkpt lat="45.41853" lon="5.91119">
        <ele>1657.75</ele>
        <time>2014-08-03T11:00:02Z</time>
      </trkpt>
      <trkpt lat="45.41869" lon="5.9113">
        <ele>1658.63</ele>
        <time>2014-08-03T11:00:15Z</time>
      </trkpt>
      <trkpt lat="45.41886" lon="5.91139">
        <ele>1659.38</ele>
        <time>2014-08-03T11:00:28Z</time>
      </trkpt>
      <trkpt lat="45.41901" lon="5.91157">
        <ele>1660.88</ele>
        <time>2014-08-03T11:00:42Z</time>
      </trkpt>
      <trkpt lat="45.41911" lon="5.91178">
        <ele>1662.62</ele>
        <time>2014-08-03T11:00:55Z</time>
      </trkpt>
      <trkpt lat="45.4192" lon="5.91202">
        <ele>1664.43</ele>
        <time>2014-08-03T11:01:10Z</time>
      </trkpt>
      <trkpt lat="45.41927" lon="5.91228">
        <ele>1663.51</ele>
        <time>2014-08-03T11:01:24Z</time>
      </trkpt>
      <trkpt lat="45.41934" lon="5.91253">
        <ele>1659.88</ele>
        <time>2014-08-03T11:01:39Z</time>
      </trkpt>
      <trkpt lat="45.41947" lon="5.9127">
        <ele>1663.56</ele>
        <time>2014-08-03T11:01:53Z</time>
      </trkpt>
      <trkpt lat="45.41965" lon="5.91278">
        <ele>1666.83</ele>
        <time>2014-08-03T11:02:08Z</time>
      </trkpt>
      <trkpt lat="45.41982" lon="5.9129">
        <ele>1666.01</ele>
        <time>2014-08-03T11:02:23Z</time>
      </trkpt>
      <trkpt lat="45.41995" lon="5.91309">
        <ele>1664.91</ele>
        <time>2014-08-03T11:02:36Z</time>
      </trkpt>
      <trkpt lat="45.42007" lon="5.9133">
        <ele>1662.18</ele>
        <time>2014-08-03T11:02:50Z</time>
      </trkpt>
      <trkpt lat="45.42021" lon="5.91347">
        <ele>1660.46</ele>
        <time>2014-08-03T11:03:03Z</time>
      </trkpt>
      <trkpt lat="45.42039" lon="5.91354">
        <ele>1659.91</ele>
        <time>2014-08-03T11:03:15Z</time>
      </trkpt>
      <trkpt lat="45.42053" lon="5.91372">
        <ele>1660.38</ele>
        <time>2014-08-03T11:03:28Z</time>
      </trkpt>
      <trkpt lat="45.42072" lon="5.91373">
        <ele>1660.88</ele>
        <time>2014-08-03T11:03:41Z</time>
      </trkpt>
      <trkpt lat="45.42086" lon="5.9139">
        <ele>1663.35</ele>
        <time>2014-08-03T11:03:55Z</time>
      </trkpt>
      <trkpt lat="45.42104" lon="5.91401">
        <ele>1663.63</ele>
        <time>2014-08-03T11:04:10Z</time>
      </trkpt>
      <trkpt lat="45.42119" lon="5.91417">
        <ele>1662.41</ele>
        <time>2014-08-03T11:04:23Z</time>
      </trkpt>
      <trkpt lat="45.4213" lon="5.91439">
        <ele>1662.85</ele>
        <time>2014-08-03T11:04:37Z</time>
      </trkpt>
      <trkpt lat="45.42137" lon="5.91463">
        <ele>1663.72</ele>
        <time>2014-08-03T11:04:52Z</time>
      </trkpt>
      <trkpt lat="45.42142" lon="5.91488">
        <ele>1663.36</ele>
        <time>2014-08-03T11:05:05Z</time>
      </trkpt>
      <trkpt lat="45.42154" lon="5.9151">
        <ele>1663.88</ele>
        <time>2014-08-03T11:05:18Z</time>
      </trkpt>
      <trkpt lat="45.42165" lon="5.91532">
        <ele>1663.91</ele>
        <time>2014-08-03T11:05:31Z</time>
      </trkpt>
      <trkpt lat="45.42178" lon="5.91553">
        <ele>1662.88</ele>
        <time>2014-08-03T11:05:44Z</time>
      </trkpt>
      <trkpt lat="45.42189" lon="5.91575">
        <ele>1661.13</ele>
        <time>2014-08-03T11:05:57Z</time>
      </trkpt>
      <trkpt lat="45.42198" lon="5.91598">
        <ele>1658.01</ele>
        <time>2014-08-03T11:06:09Z</time>
      </trkpt>
      <trkpt lat="45.42209" lon="5.91619">
        <ele>1656.01</ele>
        <time>2014-08-03T11:06:21Z</time>
      </trkpt>
      <trkpt lat="45.42222" lon="5.9164">
        <ele>1655.88</ele>
        <time>2014-08-03T11:06:33Z</time>
      </trkpt>
      <trkpt lat="45.42237" lon="5.91654">
        <ele>1655.66</ele>
        <time>2014-08-03T11:06:44Z</time>
      </trkpt>
      <trkpt lat="45.42254" lon="5.91667">
        <ele>1654.38</ele>
        <time>2014-08-03T11:06:57Z</time>
      </trkpt>
      <trkpt lat="45.42268" lon="5.91686">
        <ele>1652.88</ele>
        <time>2014-08-03T11:07:10Z</time>
      </trkpt>
      <trkpt lat="45.42275" lon="5.9171">
        <ele>1654.62</ele>
        <time>2014-08-03T11:07:23Z</time>
      </trkpt>
      <trkpt lat="45.42292" lon="5.91715">
        <ele>1652.95</ele>
        <time>2014-08-03T11:07:35Z</time>
      </trkpt>
      <trkpt lat="45.4231" lon="5.91725">
        <ele>1648.17</ele>
        <time>2014-08-03T11:07:50Z</time>
      </trkpt>
      <trkpt lat="45.42322" lon="5.91747">
        <ele>1646.27</ele>
        <time>2014-08-03T11:08:04Z</time>
      </trkpt>
      <trkpt lat="45.42338" lon="5.91761">
        <ele>1646.86</ele>
        <time>2014-08-03T11:08:16Z</time>
      </trkpt>
      <trkpt lat="45.42351" lon="5.91779">
        <ele>1647.86</ele>
        <time>2014-08-03T11:08:29Z</time>
      </trkpt>
      <trkpt lat="45.42365" lon="5.91799">
        <ele>1643.91</ele>
        <time>2014-08-03T11:08:44Z</time>
      </trkpt>
      <trkpt lat="45.42383" lon="5.91808">
        <ele>1643.88</ele>
        <time>2014-08-03T11:08:57Z</time>
      </trkpt>
      <trkpt lat="45.42398" lon="5.91824">
        <ele>1643.88</ele>
        <time>2014-08-03T11:09:10Z</time>
      </trkpt>
      <trkpt lat="45.42416" lon="5.91833">
        <ele>1642.48</ele>
        <time>2014-08-03T11:09:33Z</time>
      </trkpt>
      <trkpt lat="45.42429" lon="5.91853">
        <ele>1639.64</ele>
        <time>2014-08-03T11:10:09Z</time>
      </trkpt>
      <trkpt lat="45.42447" lon="5.9185">
        <ele>1629.18</ele>
        <time>2014-08-03T11:11:37Z</time>
      </trkpt>
      <trkpt lat="45.42464" lon="5.91844">
        <ele>1628.97</ele>
        <time>2014-08-03T11:11:49Z</time>
      </trkpt>
      <trkpt lat="45.4248" lon="5.91858">
        <ele>1628.45</ele>
        <time>2014-08-03T11:12:05Z</time>
      </trkpt>
      <trkpt lat="45.42491" lon="5.91879">
        <ele>1627</ele>
        <time>2014-08-03T11:12:21Z</time>
      </trkpt>
      <trkpt lat="45.42504" lon="5.91897">
        <ele>1625.39</ele>
        <time>2014-08-03T11:12:32Z</time>
      </trkpt>
      <trkpt lat="45.42522" lon="5.91904">
        <ele>1621.94</ele>
        <time>2014-08-03T11:12:45Z</time>
      </trkpt>
      <trkpt lat="45.42534" lon="5.91923">
        <ele>1620.41</ele>
        <time>2014-08-03T11:13:02Z</time>
      </trkpt>
      <trkpt lat="45.42541" lon="5.91947">
        <ele>1617.65</ele>
        <time>2014-08-03T11:13:17Z</time>
      </trkpt>
      <trkpt lat="45.42559" lon="5.91956">
        <ele>1611.88</ele>
        <time>2014-08-03T11:13:31Z</time>
      </trkpt>
      <trkpt lat="45.42575" lon="5.91971">
        <ele>1608.32</ele>
        <time>2014-08-03T11:13:48Z</time>
      </trkpt>
      <trkpt lat="45.42589" lon="5.91987">
        <ele>1602.82</ele>
        <time>2014-08-03T11:14:34Z</time>
      </trkpt>
      <trkpt lat="45.42608" lon="5.91989">
        <ele>1600.74</ele>
        <time>2014-08-03T11:14:51Z</time>
      </trkpt>
      <trkpt lat="45.42624" lon="5.92">
        <ele>1599.14</ele>
        <time>2014-08-03T11:15:04Z</time>
      </trkpt>
      <trkpt lat="45.42641" lon="5.92009">
        <ele>1599.06</ele>
        <time>2014-08-03T11:15:17Z</time>
      </trkpt>
      <trkpt lat="45.42658" lon="5.92019">
        <ele>1601.36</ele>
        <time>2014-08-03T11:15:30Z</time>
      </trkpt>
      <trkpt lat="45.42676" lon="5.92024">
        <ele>1600.14</ele>
        <time>2014-08-03T11:15:42Z</time>
      </trkpt>
      <trkpt lat="45.42695" lon="5.92029">
        <ele>1600.13</ele>
        <time>2014-08-03T11:15:57Z</time>
      </trkpt>
      <trkpt lat="45.42713" lon="5.92023">
        <ele>1600.11</ele>
        <time>2014-08-03T11:16:20Z</time>
      </trkpt>
      <trkpt lat="45.42729" lon="5.92036">
        <ele>1598.82</ele>
        <time>2014-08-03T11:16:42Z</time>
      </trkpt>
      <trkpt lat="45.42745" lon="5.9205">
        <ele>1598.63</ele>
        <time>2014-08-03T11:16:57Z</time>
      </trkpt>
      <trkpt lat="45.42763" lon="5.92061">
        <ele>1596.89</ele>
        <time>2014-08-03T11:17:11Z</time>
      </trkpt>
      <trkpt lat="45.42781" lon="5.92067">
        <ele>1596.85</ele>
        <time>2014-08-03T11:17:26Z</time>
      </trkpt>
      <trkpt lat="45.42799" lon="5.92074">
        <ele>1596.35</ele>
        <time>2014-08-03T11:17:39Z</time>
      </trkpt>
      <trkpt lat="45.42816" lon="5.92082">
        <ele>1596.65</ele>
        <time>2014-08-03T11:17:51Z</time>
      </trkpt>
      <trkpt lat="45.42834" lon="5.92089">
        <ele>1599.78</ele>
        <time>2014-08-03T11:18:05Z</time>
      </trkpt>
      <trkpt lat="45.4285" lon="5.921">
        <ele>1602.88</ele>
        <time>2014-08-03T11:18:24Z</time>
      </trkpt>
      <trkpt lat="45.42869" lon="5.92098">
        <ele>1601.65</ele>
        <time>2014-08-03T11:18:40Z</time>
      </trkpt>
      <trkpt lat="45.42887" lon="5.92091">
        <ele>1592.83</ele>
        <time>2014-08-03T11:19:08Z</time>
      </trkpt>
      <trkpt lat="45.42901" lon="5.92108">
        <ele>1589.88</ele>
        <time>2014-08-03T11:19:23Z</time>
      </trkpt>
      <trkpt lat="45.42913" lon="5.92127">
        <ele>1590.02</ele>
        <time>2014-08-03T11:19:40Z</time>
      </trkpt>
      <trkpt lat="45.42928" lon="5.92143">
        <ele>1591.55</ele>
        <time>2014-08-03T11:19:55Z</time>
      </trkpt>
      <trkpt lat="45.42945" lon="5.92154">
        <ele>1595.73</ele>
        <time>2014-08-03T11:20:16Z</time>
      </trkpt>
      <trkpt lat="45.42963" lon="5.92158">
        <ele>1596.25</ele>
        <time>2014-08-03T11:20:30Z</time>
      </trkpt>
      <trkpt lat="45.42981" lon="5.92165">
        <ele>1594.2</ele>
        <time>2014-08-03T11:20:54Z</time>
      </trkpt>
      <trkpt lat="45.42999" lon="5.92167">
        <ele>1587.63</ele>
        <time>2014-08-03T11:21:12Z</time>
      </trkpt>
      <trkpt lat="45.43018" lon="5.92169">
        <ele>1584.75</ele>
        <time>2014-08-03T11:21:23Z</time>
      </trkpt>
      <trkpt lat="45.43036" lon="5.92172">
        <ele>1582.88</ele>
        <time>2014-08-03T11:21:39Z</time>
      </trkpt>
      <trkpt lat="45.43053" lon="5.92179">
        <ele>1580.77</ele>
        <time>2014-08-03T11:21:54Z</time>
      </trkpt>
      <trkpt lat="45.43071" lon="5.92185">
        <ele>1584.58</ele>
        <time>2014-08-03T11:22:06Z</time>
      </trkpt>
      <trkpt lat="45.43089" lon="5.92195">
        <ele>1584.24</ele>
        <time>2014-08-03T11:22:20Z</time>
      </trkpt>
      <trkpt lat="45.43108" lon="5.92199">
        <ele>1582.03</ele>
        <time>2014-08-03T11:22:36Z</time>
      </trkpt>
      <trkpt lat="45.43126" lon="5.92201">
        <ele>1579.9</ele>
        <time>2014-08-03T11:23:02Z</time>
      </trkpt>
      <trkpt lat="45.43144" lon="5.92209">
        <ele>1584.27</ele>
        <time>2014-08-03T11:23:25Z</time>
      </trkpt>
      <trkpt lat="45.43161" lon="5.922">
        <ele>1583.02</ele>
        <time>2014-08-03T11:23:42Z</time>
      </trkpt>
      <trkpt lat="45.43181" lon="5.92198">
        <ele>1574</ele>
        <time>2014-08-03T11:23:57Z</time>
      </trkpt>
      <trkpt lat="45.43199" lon="5.92187">
        <ele>1572.9</ele>
        <time>2014-08-03T11:24:08Z</time>
      </trkpt>
      <trkpt lat="45.43215" lon="5.9217">
        <ele>1583.55</ele>
        <time>2014-08-03T11:24:19Z</time>
      </trkpt>
      <trkpt lat="45.4323" lon="5.92153">
        <ele>1579.91</ele>
        <time>2014-08-03T11:24:32Z</time>
      </trkpt>
      <trkpt lat="45.43248" lon="5.92146">
        <ele>1581.15</ele>
        <time>2014-08-03T11:24:43Z</time>
      </trkpt>
      <trkpt lat="45.43266" lon="5.92143">
        <ele>1581.55</ele>
        <time>2014-08-03T11:25:03Z</time>
      </trkpt>
      <trkpt lat="45.43285" lon="5.92145">
        <ele>1579.91</ele>
        <time>2014-08-03T11:25:16Z</time>
      </trkpt>
      <trkpt lat="45.43301" lon="5.92159">
        <ele>1582.56</ele>
        <time>2014-08-03T11:25:33Z</time>
      </trkpt>
      <trkpt lat="45.43311" lon="5.9218">
        <ele>1578.28</ele>
        <time>2014-08-03T11:25:51Z</time>
      </trkpt>
      <trkpt lat="45.43324" lon="5.92199">
        <ele>1588.91</ele>
        <time>2014-08-03T11:26:06Z</time>
      </trkpt>
      <trkpt lat="45.43341" lon="5.9221">
        <ele>1580.88</ele>
        <time>2014-08-03T11:26:22Z</time>
      </trkpt>
      <trkpt lat="45.43358" lon="5.9222">
        <ele>1583.25</ele>
        <time>2014-08-03T11:26:38Z</time>
      </trkpt>
      <trkpt lat="45.4337" lon="5.92241">
        <ele>1563.49</ele>
        <time>2014-08-03T11:27:01Z</time>
      </trkpt>
      <trkpt lat="45.43388" lon="5.92255">
        <ele>1555.71</ele>
        <time>2014-08-03T11:27:18Z</time>
      </trkpt>
      <trkpt lat="45.43402" lon="5.92271">
        <ele>1562.95</ele>
        <time>2014-08-03T11:27:33Z</time>
      </trkpt>
      <trkpt lat="45.43414" lon="5.92291">
        <ele>1560.26</ele>
        <time>2014-08-03T11:27:50Z</time>
      </trkpt>
      <trkpt lat="45.43425" lon="5.92313">
        <ele>1554.92</ele>
        <time>2014-08-03T11:28:02Z</time>
      </trkpt>
      <trkpt lat="45.43434" lon="5.92336">
        <ele>1568.85</ele>
        <time>2014-08-03T11:28:16Z</time>
      </trkpt>
      <trkpt lat="45.4345" lon="5.92352">
        <ele>1570.22</ele>
        <time>2014-08-03T11:28:28Z</time>
      </trkpt>
      <trkpt lat="45.43463" lon="5.92373">
        <ele>1552.87</ele>
        <time>2014-08-03T11:28:37Z</time>
      </trkpt>
      <trkpt lat="45.43473" lon="5.92394">
        <ele>1548.07</ele>
        <time>2014-08-03T11:28:50Z</time>
      </trkpt>
      <trkpt lat="45.43487" lon="5.92412">
        <ele>1549.71</ele>
        <time>2014-08-03T11:29:07Z</time>
      </trkpt>
      <trkpt lat="45.43504" lon="5.92426">
        <ele>1552.08</ele>
        <time>2014-08-03T11:29:21Z</time>
      </trkpt>
      <trkpt lat="45.43518" lon="5.92445">
        <ele>1558.02</ele>
        <time>2014-08-03T11:29:33Z</time>
      </trkpt>
      <trkpt lat="45.4353" lon="5.92465">
        <ele>1564.98</ele>
        <time>2014-08-03T11:29:48Z</time>
      </trkpt>
      <trkpt lat="45.43542" lon="5.92486">
        <ele>1560.73</ele>
        <time>2014-08-03T11:30:02Z</time>
      </trkpt>
      <trkpt lat="45.43555" lon="5.92505">
        <ele>1556.36</ele>
        <time>2014-08-03T11:30:14Z</time>
      </trkpt>
      <trkpt lat="45.43573" lon="5.92499">
        <ele>1544.73</ele>
        <time>2014-08-03T11:30:24Z</time>
      </trkpt>
      <trkpt lat="45.43586" lon="5.92481">
        <ele>1541.18</ele>
        <time>2014-08-03T11:30:39Z</time>
      </trkpt>
      <trkpt lat="45.43593" lon="5.92457">
        <ele>1539.68</ele>
        <time>2014-08-03T11:30:54Z</time>
      </trkpt>
      <trkpt lat="45.43601" lon="5.92434">
        <ele>1543.84</ele>
        <time>2014-08-03T11:31:09Z</time>
      </trkpt>
      <trkpt lat="45.43612" lon="5.92412">
        <ele>1544.12</ele>
        <time>2014-08-03T11:31:25Z</time>
      </trkpt>
      <trkpt lat="45.43625" lon="5.92394">
        <ele>1541.12</ele>
        <time>2014-08-03T11:31:35Z</time>
      </trkpt>
      <trkpt lat="45.43641" lon="5.92379">
        <ele>1540.78</ele>
        <time>2014-08-03T11:31:46Z</time>
      </trkpt>
      <trkpt lat="45.43658" lon="5.92368">
        <ele>1542.82</ele>
        <time>2014-08-03T11:32:04Z</time>
      </trkpt>
      <trkpt lat="45.43667" lon="5.92344">
        <ele>1539.5</ele>
        <time>2014-08-03T11:32:17Z</time>
      </trkpt>
      <trkpt lat="45.43677" lon="5.9232">
        <ele>1535.54</ele>
        <time>2014-08-03T11:32:32Z</time>
      </trkpt>
      <trkpt lat="45.4369" lon="5.92298">
        <ele>1532.18</ele>
        <time>2014-08-03T11:32:44Z</time>
      </trkpt>
      <trkpt lat="45.43696" lon="5.92273">
        <ele>1531.71</ele>
        <time>2014-08-03T11:32:55Z</time>
      </trkpt>
      <trkpt lat="45.43709" lon="5.92253">
        <ele>1536.89</ele>
        <time>2014-08-03T11:33:17Z</time>
      </trkpt>
      <trkpt lat="45.43727" lon="5.92243">
        <ele>1544.85</ele>
        <time>2014-08-03T11:33:33Z</time>
      </trkpt>
      <trkpt lat="45.43744" lon="5.9223">
        <ele>1548.05</ele>
        <time>2014-08-03T11:33:49Z</time>
      </trkpt>
      <trkpt lat="45.43756" lon="5.92209">
        <ele>1549.05</ele>
        <time>2014-08-03T11:34:02Z</time>
      </trkpt>
      <trkpt lat="45.4376" lon="5.92184">
        <ele>1540.69</ele>
        <time>2014-08-03T11:34:18Z</time>
      </trkpt>
      <trkpt lat="45.4377" lon="5.92161">
        <ele>1542.61</ele>
        <time>2014-08-03T11:34:32Z</time>
      </trkpt>
      <trkpt lat="45.43787" lon="5.92154">
        <ele>1543.5</ele>
        <time>2014-08-03T11:34:50Z</time>
      </trkpt>
      <trkpt lat="45.43806" lon="5.92153">
        <ele>1543.77</ele>
        <time>2014-08-03T11:35:06Z</time>
      </trkpt>
      <trkpt lat="45.43824" lon="5.92157">
        <ele>1539.71</ele>
        <time>2014-08-03T11:35:25Z</time>
      </trkpt>
      <trkpt lat="45.43839" lon="5.92172">
        <ele>1534.24</ele>
        <time>2014-08-03T11:35:42Z</time>
      </trkpt>
      <trkpt lat="45.43858" lon="5.92182">
        <ele>1532.26</ele>
        <time>2014-08-03T11:35:52Z</time>
      </trkpt>
      <trkpt lat="45.43875" lon="5.92187">
        <ele>1513.82</ele>
        <time>2014-08-03T11:36:18Z</time>
      </trkpt>
      <trkpt lat="45.43886" lon="5.92209">
        <ele>1508.87</ele>
        <time>2014-08-03T11:36:37Z</time>
      </trkpt>
      <trkpt lat="45.43902" lon="5.92225">
        <ele>1500.67</ele>
        <time>2014-08-03T11:36:52Z</time>
      </trkpt>
      <trkpt lat="45.43921" lon="5.92231">
        <ele>1500.87</ele>
        <time>2014-08-03T11:37:04Z</time>
      </trkpt>
      <trkpt lat="45.43934" lon="5.92211">
        <ele>1496.6</ele>
        <time>2014-08-03T11:37:15Z</time>
      </trkpt>
      <trkpt lat="45.4394" lon="5.92187">
        <ele>1493.42</ele>
        <time>2014-08-03T11:37:27Z</time>
      </trkpt>
      <trkpt lat="45.43947" lon="5.92161">
        <ele>1490.13</ele>
        <time>2014-08-03T11:37:39Z</time>
      </trkpt>
      <trkpt lat="45.43952" lon="5.92136">
        <ele>1485.27</ele>
        <time>2014-08-03T11:37:51Z</time>
      </trkpt>
      <trkpt lat="45.43961" lon="5.92113">
        <ele>1484.11</ele>
        <time>2014-08-03T11:40:03Z</time>
      </trkpt>
      <trkpt lat="45.43946" lon="5.9213">
        <ele>1485.86</ele>
        <time>2014-08-03T11:40:22Z</time>
      </trkpt>
      <trkpt lat="45.43929" lon="5.92121">
        <ele>1485.19</ele>
        <time>2014-08-03T11:40:43Z</time>
      </trkpt>
      <trkpt lat="45.43948" lon="5.92127">
        <ele>1490.97</ele>
        <time>2014-08-03T11:43:34Z</time>
      </trkpt>
      <trkpt lat="45.43964" lon="5.92139">
        <ele>1492.98</ele>
        <time>2014-08-03T11:43:47Z</time>
      </trkpt>
      <trkpt lat="45.43981" lon="5.92152">
        <ele>1491.9</ele>
        <time>2014-08-03T11:44:01Z</time>
      </trkpt>
      <trkpt lat="45.43998" lon="5.92163">
        <ele>1492.7</ele>
        <time>2014-08-03T11:44:15Z</time>
      </trkpt>
      <trkpt lat="45.44015" lon="5.92174">
        <ele>1493.18</ele>
        <time>2014-08-03T11:44:30Z</time>
      </trkpt>
      <trkpt lat="45.44031" lon="5.92187">
        <ele>1497.85</ele>
        <time>2014-08-03T11:44:56Z</time>
      </trkpt>
      <trkpt lat="45.4405" lon="5.92189">
        <ele>1499.44</ele>
        <time>2014-08-03T11:45:15Z</time>
      </trkpt>
      <trkpt lat="45.44058" lon="5.92166">
        <ele>1509.85</ele>
        <time>2014-08-03T11:45:49Z</time>
      </trkpt>
      <trkpt lat="45.44068" lon="5.92143">
        <ele>1513.69</ele>
        <time>2014-08-03T11:46:07Z</time>
      </trkpt>
      <trkpt lat="45.44075" lon="5.92119">
        <ele>1515.78</ele>
        <time>2014-08-03T11:46:23Z</time>
      </trkpt>
      <trkpt lat="45.44083" lon="5.92096">
        <ele>1516.85</ele>
        <time>2014-08-03T11:46:36Z</time>
      </trkpt>
      <trkpt lat="45.44094" lon="5.92074">
        <ele>1517.38</ele>
        <time>2014-08-03T11:46:51Z</time>
      </trkpt>
      <trkpt lat="45.44106" lon="5.92055">
        <ele>1519.07</ele>
        <time>2014-08-03T11:47:05Z</time>
      </trkpt>
      <trkpt lat="45.44118" lon="5.92034">
        <ele>1518.99</ele>
        <time>2014-08-03T11:47:19Z</time>
      </trkpt>
      <trkpt lat="45.4413" lon="5.92015">
        <ele>1519.88</ele>
        <time>2014-08-03T11:47:32Z</time>
      </trkpt>
      <trkpt lat="45.44141" lon="5.91995">
        <ele>1518.9</ele>
        <time>2014-08-03T11:47:45Z</time>
      </trkpt>
      <trkpt lat="45.44149" lon="5.91971">
        <ele>1520.87</ele>
        <time>2014-08-03T11:47:59Z</time>
      </trkpt>
      <trkpt lat="45.44155" lon="5.91945">
        <ele>1522.99</ele>
        <time>2014-08-03T11:48:13Z</time>
      </trkpt>
      <trkpt lat="45.44163" lon="5.91921">
        <ele>1527.65</ele>
        <time>2014-08-03T11:48:27Z</time>
      </trkpt>
      <trkpt lat="45.44172" lon="5.91898">
        <ele>1528.75</ele>
        <time>2014-08-03T11:48:40Z</time>
      </trkpt>
      <trkpt lat="45.44183" lon="5.91878">
        <ele>1530.87</ele>
        <time>2014-08-03T11:49:01Z</time>
      </trkpt>
      <trkpt lat="45.44197" lon="5.91861">
        <ele>1527.81</ele>
        <time>2014-08-03T11:49:25Z</time>
      </trkpt>
      <trkpt lat="45.44208" lon="5.9184">
        <ele>1520.86</ele>
        <time>2014-08-03T11:49:53Z</time>
      </trkpt>
      <trkpt lat="45.44226" lon="5.91831">
        <ele>1518.55</ele>
        <time>2014-08-03T11:50:13Z</time>
      </trkpt>
      <trkpt lat="45.44227" lon="5.91805">
        <ele>1502.18</ele>
        <time>2014-08-03T11:51:20Z</time>
      </trkpt>
      <trkpt lat="45.44229" lon="5.91779">
        <ele>1496.27</ele>
        <time>2014-08-03T11:51:43Z</time>
      </trkpt>
      <trkpt lat="45.44247" lon="5.91783">
        <ele>1492.98</ele>
        <time>2014-08-03T11:52:15Z</time>
      </trkpt>
      <trkpt lat="45.44264" lon="5.91796">
        <ele>1490.11</ele>
        <time>2014-08-03T11:52:29Z</time>
      </trkpt>
      <trkpt lat="45.44276" lon="5.91815">
        <ele>1480.71</ele>
        <time>2014-08-03T11:52:51Z</time>
      </trkpt>
      <trkpt lat="45.44292" lon="5.91832">
        <ele>1482.07</ele>
        <time>2014-08-03T11:53:06Z</time>
      </trkpt>
      <trkpt lat="45.443" lon="5.9181">
        <ele>1438.34</ele>
        <time>2014-08-03T11:54:33Z</time>
      </trkpt>
      <trkpt lat="45.44316" lon="5.91797">
        <ele>1416.76</ele>
        <time>2014-08-03T11:54:55Z</time>
      </trkpt>
      <trkpt lat="45.4433" lon="5.91778">
        <ele>1405.05</ele>
        <time>2014-08-03T11:55:17Z</time>
      </trkpt>
      <trkpt lat="45.44332" lon="5.91753">
        <ele>1400.87</ele>
        <time>2014-08-03T11:55:40Z</time>
      </trkpt>
      <trkpt lat="45.44328" lon="5.91727">
        <ele>1375.96</ele>
        <time>2014-08-03T11:56:23Z</time>
      </trkpt>
      <trkpt lat="45.44316" lon="5.91706">
        <ele>1369.13</ele>
        <time>2014-08-03T11:56:49Z</time>
      </trkpt>
      <trkpt lat="45.44311" lon="5.91681">
        <ele>1361.25</ele>
        <time>2014-08-03T11:57:16Z</time>
      </trkpt>
      <trkpt lat="45.44296" lon="5.91666">
        <ele>1355.48</ele>
        <time>2014-08-03T11:57:43Z</time>
      </trkpt>
      <trkpt lat="45.44287" lon="5.91642">
        <ele>1351.79</ele>
        <time>2014-08-03T11:58:15Z</time>
      </trkpt>
      <trkpt lat="45.44271" lon="5.91628">
        <ele>1348.4</ele>
        <time>2014-08-03T11:58:32Z</time>
      </trkpt>
      <trkpt lat="45.44252" lon="5.91623">
        <ele>1337.91</ele>
        <time>2014-08-03T11:58:48Z</time>
      </trkpt>
      <trkpt lat="45.44235" lon="5.91611">
        <ele>1333.69</ele>
        <time>2014-08-03T11:59:08Z</time>
      </trkpt>
      <trkpt lat="45.44239" lon="5.91585">
        <ele>1324.87</ele>
        <time>2014-08-03T11:59:21Z</time>
      </trkpt>
      <trkpt lat="45.44248" lon="5.91562">
        <ele>1316.59</ele>
        <time>2014-08-03T11:59:38Z</time>
      </trkpt>
      <trkpt lat="45.44256" lon="5.91538">
        <ele>1312.97</ele>
        <time>2014-08-03T12:00:01Z</time>
      </trkpt>
      <trkpt lat="45.44268" lon="5.91517">
        <ele>1303.24</ele>
        <time>2014-08-03T12:00:15Z</time>
      </trkpt>
      <trkpt lat="45.44285" lon="5.91505">
        <ele>1291.05</ele>
        <time>2014-08-03T12:00:24Z</time>
      </trkpt>
      <trkpt lat="45.44296" lon="5.91485">
        <ele>1282.02</ele>
        <time>2014-08-03T12:00:38Z</time>
      </trkpt>
      <trkpt lat="45.44307" lon="5.91463">
        <ele>1282.85</ele>
        <time>2014-08-03T12:00:54Z</time>
      </trkpt>
      <trkpt lat="45.44317" lon="5.91442">
        <ele>1265.64</ele>
        <time>2014-08-03T12:01:07Z</time>
      </trkpt>
      <trkpt lat="45.44316" lon="5.91415">
        <ele>1264.51</ele>
        <time>2014-08-03T12:01:23Z</time>
      </trkpt>
      <trkpt lat="45.44324" lon="5.91391">
        <ele>1252.14</ele>
        <time>2014-08-03T12:01:37Z</time>
      </trkpt>
      <trkpt lat="45.44333" lon="5.91366">
        <ele>1242.02</ele>
        <time>2014-08-03T12:01:50Z</time>
      </trkpt>
      <trkpt lat="45.44343" lon="5.91345">
        <ele>1240.85</ele>
        <time>2014-08-03T12:02:05Z</time>
      </trkpt>
      <trkpt lat="45.44355" lon="5.91323">
        <ele>1228.45</ele>
        <time>2014-08-03T12:02:29Z</time>
      </trkpt>
      <trkpt lat="45.44368" lon="5.91304">
        <ele>1224.31</ele>
        <time>2014-08-03T12:02:42Z</time>
      </trkpt>
      <trkpt lat="45.44356" lon="5.91285">
        <ele>1234.55</ele>
        <time>2014-08-03T12:03:15Z</time>
      </trkpt>
      <trkpt lat="45.44338" lon="5.91277">
        <ele>1226.9</ele>
        <time>2014-08-03T12:03:29Z</time>
      </trkpt>
      <trkpt lat="45.44319" lon="5.91282">
        <ele>1223.69</ele>
        <time>2014-08-03T12:03:43Z</time>
      </trkpt>
      <trkpt lat="45.443" lon="5.9128">
        <ele>1225.49</ele>
        <time>2014-08-03T12:03:55Z</time>
      </trkpt>
      <trkpt lat="45.44282" lon="5.91278">
        <ele>1223</ele>
        <time>2014-08-03T12:04:11Z</time>
      </trkpt>
      <trkpt lat="45.44264" lon="5.91288">
        <ele>1227.81</ele>
        <time>2014-08-03T12:04:25Z</time>
      </trkpt>
      <trkpt lat="45.44247" lon="5.91284">
        <ele>1224.39</ele>
        <time>2014-08-03T12:04:37Z</time>
      </trkpt>
      <trkpt lat="45.44228" lon="5.91289">
        <ele>1222.17</ele>
        <time>2014-08-03T12:04:54Z</time>
      </trkpt>
      <trkpt lat="45.44212" lon="5.91301">
        <ele>1224.91</ele>
        <time>2014-08-03T12:05:08Z</time>
      </trkpt>
      <trkpt lat="45.44194" lon="5.91314">
        <ele>1222.1</ele>
        <time>2014-08-03T12:05:18Z</time>
      </trkpt>
      <trkpt lat="45.44175" lon="5.91322">
        <ele>1215.89</ele>
        <time>2014-08-03T12:05:33Z</time>
      </trkpt>
      <trkpt lat="45.44157" lon="5.91328">
        <ele>1210.56</ele>
        <time>2014-08-03T12:05:43Z</time>
      </trkpt>
      <trkpt lat="45.44139" lon="5.91336">
        <ele>1205.25</ele>
        <time>2014-08-03T12:05:53Z</time>
      </trkpt>
      <trkpt lat="45.44121" lon="5.9134">
        <ele>1200.11</ele>
        <time>2014-08-03T12:06:09Z</time>
      </trkpt>
      <trkpt lat="45.44103" lon="5.91346">
        <ele>1194.49</ele>
        <time>2014-08-03T12:06:22Z</time>
      </trkpt>
      <trkpt lat="45.44085" lon="5.9134">
        <ele>1190.2</ele>
        <time>2014-08-03T12:06:35Z</time>
      </trkpt>
      <trkpt lat="45.44075" lon="5.91318">
        <ele>1186.64</ele>
        <time>2014-08-03T12:06:47Z</time>
      </trkpt>
      <trkpt lat="45.44062" lon="5.913">
        <ele>1185.07</ele>
        <time>2014-08-03T12:07:01Z</time>
      </trkpt>
      <trkpt lat="45.44046" lon="5.91288">
        <ele>1187.94</ele>
        <time>2014-08-03T12:07:22Z</time>
      </trkpt>
      <trkpt lat="45.44027" lon="5.91283">
        <ele>1169.89</ele>
        <time>2014-08-03T12:07:32Z</time>
      </trkpt>
      <trkpt lat="45.44012" lon="5.91268">
        <ele>1167.74</ele>
        <time>2014-08-03T12:07:42Z</time>
      </trkpt>
      <trkpt lat="45.43997" lon="5.91253">
        <ele>1166.08</ele>
        <time>2014-08-03T12:07:58Z</time>
      </trkpt>
      <trkpt lat="45.43984" lon="5.91235">
        <ele>1161.25</ele>
        <time>2014-08-03T12:08:18Z</time>
      </trkpt>
      <trkpt lat="45.43982" lon="5.91207">
        <ele>1161.03</ele>
        <time>2014-08-03T12:08:29Z</time>
      </trkpt>
      <trkpt lat="45.43994" lon="5.91185">
        <ele>1148.59</ele>
        <time>2014-08-03T12:08:47Z</time>
      </trkpt>
      <trkpt lat="45.44009" lon="5.91168">
        <ele>1148.31</ele>
        <time>2014-08-03T12:08:58Z</time>
      </trkpt>
      <trkpt lat="45.44019" lon="5.91145">
        <ele>1150.37</ele>
        <time>2014-08-03T12:09:11Z</time>
      </trkpt>
      <trkpt lat="45.44024" lon="5.9112">
        <ele>1149.32</ele>
        <time>2014-08-03T12:09:24Z</time>
      </trkpt>
      <trkpt lat="45.44028" lon="5.91095">
        <ele>1149.41</ele>
        <time>2014-08-03T12:09:39Z</time>
      </trkpt>
      <trkpt lat="45.44025" lon="5.91068">
        <ele>1148.34</ele>
        <time>2014-08-03T12:09:56Z</time>
      </trkpt>
      <trkpt lat="45.4402" lon="5.91043">
        <ele>1151.58</ele>
        <time>2014-08-03T12:10:09Z</time>
      </trkpt>
      <trkpt lat="45.44019" lon="5.91017">
        <ele>1145.83</ele>
        <time>2014-08-03T12:10:20Z</time>
      </trkpt>
      <trkpt lat="45.44019" lon="5.90989">
        <ele>1141.05</ele>
        <time>2014-08-03T12:10:32Z</time>
      </trkpt>
      <trkpt lat="45.44016" lon="5.90963">
        <ele>1137.22</ele>
        <time>2014-08-03T12:10:45Z</time>
      </trkpt>
      <trkpt lat="45.4403" lon="5.90946">
        <ele>1132.43</ele>
        <time>2014-08-03T12:11:01Z</time>
      </trkpt>
      <trkpt lat="45.44046" lon="5.9093">
        <ele>1134.06</ele>
        <time>2014-08-03T12:11:15Z</time>
      </trkpt>
      <trkpt lat="45.44055" lon="5.90905">
        <ele>1139.83</ele>
        <time>2014-08-03T12:11:28Z</time>
      </trkpt>
      <trkpt lat="45.44061" lon="5.9088">
        <ele>1149.72</ele>
        <time>2014-08-03T12:11:43Z</time>
      </trkpt>
      <trkpt lat="45.44067" lon="5.90853">
        <ele>1148</ele>
        <time>2014-08-03T12:11:56Z</time>
      </trkpt>
      <trkpt lat="45.44074" lon="5.90829">
        <ele>1135.35</ele>
        <time>2014-08-03T12:12:08Z</time>
      </trkpt>
      <trkpt lat="45.44067" lon="5.90805">
        <ele>1133.79</ele>
        <time>2014-08-03T12:12:26Z</time>
      </trkpt>
      <trkpt lat="45.44053" lon="5.90787">
        <ele>1134.88</ele>
        <time>2014-08-03T12:12:39Z</time>
      </trkpt>
      <trkpt lat="45.44049" lon="5.90761">
        <ele>1146.67</ele>
        <time>2014-08-03T12:12:50Z</time>
      </trkpt>
      <trkpt lat="45.44055" lon="5.90735">
        <ele>1148.63</ele>
        <time>2014-08-03T12:13:04Z</time>
      </trkpt>
      <trkpt lat="45.44063" lon="5.90711">
        <ele>1141.3</ele>
        <time>2014-08-03T12:13:14Z</time>
      </trkpt>
      <trkpt lat="45.44064" lon="5.90684">
        <ele>1128.39</ele>
        <time>2014-08-03T12:13:25Z</time>
      </trkpt>
      <trkpt lat="45.4407" lon="5.90658">
        <ele>1118.33</ele>
        <time>2014-08-03T12:13:39Z</time>
      </trkpt>
      <trkpt lat="45.44077" lon="5.90633">
        <ele>1122.02</ele>
        <time>2014-08-03T12:13:51Z</time>
      </trkpt>
      <trkpt lat="45.44083" lon="5.90608">
        <ele>1106.55</ele>
        <time>2014-08-03T12:14:07Z</time>
      </trkpt>
      <trkpt lat="45.44098" lon="5.90594">
        <ele>1103.32</ele>
        <time>2014-08-03T12:14:16Z</time>
      </trkpt>
      <trkpt lat="45.44114" lon="5.90579">
        <ele>1100.97</ele>
        <time>2014-08-03T12:14:28Z</time>
      </trkpt>
      <trkpt lat="45.44131" lon="5.9057">
        <ele>1105</ele>
        <time>2014-08-03T12:14:38Z</time>
      </trkpt>
      <trkpt lat="45.4415" lon="5.90566">
        <ele>1107.91</ele>
        <time>2014-08-03T12:14:48Z</time>
      </trkpt>
      <trkpt lat="45.44171" lon="5.90561">
        <ele>1094.58</ele>
        <time>2014-08-03T12:14:56Z</time>
      </trkpt>
      <trkpt lat="45.44191" lon="5.90556">
        <ele>1092.7</ele>
        <time>2014-08-03T12:15:04Z</time>
      </trkpt>
      <trkpt lat="45.4421" lon="5.90556">
        <ele>1095.91</ele>
        <time>2014-08-03T12:15:13Z</time>
      </trkpt>
      <trkpt lat="45.44227" lon="5.90548">
        <ele>1088.58</ele>
        <time>2014-08-03T12:15:23Z</time>
      </trkpt>
      <trkpt lat="45.44246" lon="5.90543">
        <ele>1084.68</ele>
        <time>2014-08-03T12:15:33Z</time>
      </trkpt>
      <trkpt lat="45.44264" lon="5.90544">
        <ele>1087.74</ele>
        <time>2014-08-03T12:15:43Z</time>
      </trkpt>
      <trkpt lat="45.44282" lon="5.90536">
        <ele>1088.89</ele>
        <time>2014-08-03T12:15:55Z</time>
      </trkpt>
      <trkpt lat="45.44299" lon="5.90525">
        <ele>1088.88</ele>
        <time>2014-08-03T12:16:07Z</time>
      </trkpt>
      <trkpt lat="45.44317" lon="5.90519">
        <ele>1088.93</ele>
        <time>2014-08-03T12:16:17Z</time>
      </trkpt>
      <trkpt lat="45.44335" lon="5.90511">
        <ele>1086.91</ele>
        <time>2014-08-03T12:16:28Z</time>
      </trkpt>
      <trkpt lat="45.44352" lon="5.905">
        <ele>1085.44</ele>
        <time>2014-08-03T12:16:39Z</time>
      </trkpt>
      <trkpt lat="45.44371" lon="5.90494">
        <ele>1086.74</ele>
        <time>2014-08-03T12:16:49Z</time>
      </trkpt>
      <trkpt lat="45.44389" lon="5.90485">
        <ele>1086.62</ele>
        <time>2014-08-03T12:17:00Z</time>
      </trkpt>
      <trkpt lat="45.44401" lon="5.90465">
        <ele>1086.5</ele>
        <time>2014-08-03T12:17:13Z</time>
      </trkpt>
      <trkpt lat="45.44396" lon="5.9044">
        <ele>1086.27</ele>
        <time>2014-08-03T12:17:27Z</time>
      </trkpt>
      <trkpt lat="45.44392" lon="5.90414">
        <ele>1075.06</ele>
        <time>2014-08-03T12:17:41Z</time>
      </trkpt>
      <trkpt lat="45.44389" lon="5.90387">
        <ele>1071.23</ele>
        <time>2014-08-03T12:17:53Z</time>
      </trkpt>
      <trkpt lat="45.44388" lon="5.90361">
        <ele>1069.73</ele>
        <time>2014-08-03T12:18:04Z</time>
      </trkpt>
      <trkpt lat="45.44388" lon="5.90336">
        <ele>1071.01</ele>
        <time>2014-08-03T12:18:39Z</time>
      </trkpt>
    </trkseg>
  </trk>
</gpx>